<?xml version="1.0" encoding="UTF-8" standalone="no" ?>
<gpx xmlns="http://www.topografix.com/GPX/1/1" xmlns:xsi="http://www.w3.org/2001/XMLSchema-instance" xsi:schemaLocation="http://www.topografix.com/GPX/1/1 http://www.topografix.com/GPX/1/1/gpx.xsd" version="1.1" creator="VisuGPX - https://www.visugpx.com">
  <metadata>
    <name>Chartreuse, Tunnel du Trefle</name>
    <desc><![CDATA[Objectif : trouver cette curiosité géologique sur les crètes du Grand Manti]]></desc>
  </metadata>
  <trk>
    <name><![CDATA[2017-09-23 07:32]]></name>
    <desc><![CDATA[<p>Heure de départ: 09/23/2017 07:32<br/>Heure d'arrivée: 09/23/2017 12:47<br/>Distance: 10,9 km (05:15)<br/>Temps déplacement: 02:47<br/>Vitesse moyenne: 2,07 km/h<br/>Vitesse moyenne mouv.: 3,9 km/h<br/>Vitesse Max.: 17,52 km/h<br/>Altitude minimale: 836 m<br/>Altitude maximale: 1813 m<br/>Vitesse de montée: 407,3 m/h<br/>Vitesse de descente: -399,1 m/h<br/>Gain d'altitude: 1050 m<br/>Perte d'altitude: -1069 m<br/>Temps de montée: 02:34<br/>Temps de descente: 02:40<br/></p><hr align="center" width="480" style="height: 2px; width: 517px"/>]]></desc>
    <trkseg>
      <trkpt lat="45.40112" lon="5.8909">
        <ele>869.97</ele>
        <time>2017-09-23T05:32:27Z</time>
      </trkpt>
      <trkpt lat="45.40122" lon="5.8909">
        <ele>869.85</ele>
        <time>2017-09-23T05:33:36Z</time>
      </trkpt>
      <trkpt lat="45.40121" lon="5.89076">
        <ele>856.79</ele>
        <time>2017-09-23T05:34:02Z</time>
      </trkpt>
      <trkpt lat="45.40115" lon="5.89064">
        <ele>853.89</ele>
        <time>2017-09-23T05:34:09Z</time>
      </trkpt>
      <trkpt lat="45.40106" lon="5.8906">
        <ele>852.05</ele>
        <time>2017-09-23T05:34:15Z</time>
      </trkpt>
      <trkpt lat="45.40097" lon="5.89057">
        <ele>854.3</ele>
        <time>2017-09-23T05:34:23Z</time>
      </trkpt>
      <trkpt lat="45.40088" lon="5.89056">
        <ele>854.18</ele>
        <time>2017-09-23T05:34:28Z</time>
      </trkpt>
      <trkpt lat="45.40078" lon="5.89054">
        <ele>854.09</ele>
        <time>2017-09-23T05:34:33Z</time>
      </trkpt>
      <trkpt lat="45.40068" lon="5.89056">
        <ele>854.89</ele>
        <time>2017-09-23T05:34:40Z</time>
      </trkpt>
      <trkpt lat="45.40059" lon="5.89057">
        <ele>857.21</ele>
        <time>2017-09-23T05:34:49Z</time>
      </trkpt>
      <trkpt lat="45.40049" lon="5.89056">
        <ele>855.38</ele>
        <time>2017-09-23T05:35:04Z</time>
      </trkpt>
      <trkpt lat="45.4004" lon="5.89061">
        <ele>858.56</ele>
        <time>2017-09-23T05:35:16Z</time>
      </trkpt>
      <trkpt lat="45.40031" lon="5.89064">
        <ele>862.67</ele>
        <time>2017-09-23T05:35:21Z</time>
      </trkpt>
      <trkpt lat="45.40021" lon="5.89066">
        <ele>862.94</ele>
        <time>2017-09-23T05:35:28Z</time>
      </trkpt>
      <trkpt lat="45.40011" lon="5.89073">
        <ele>860.22</ele>
        <time>2017-09-23T05:35:35Z</time>
      </trkpt>
      <trkpt lat="45.40003" lon="5.89078">
        <ele>856.96</ele>
        <time>2017-09-23T05:35:41Z</time>
      </trkpt>
      <trkpt lat="45.39996" lon="5.89087">
        <ele>852.73</ele>
        <time>2017-09-23T05:35:48Z</time>
      </trkpt>
      <trkpt lat="45.39989" lon="5.89096">
        <ele>844.02</ele>
        <time>2017-09-23T05:35:57Z</time>
      </trkpt>
      <trkpt lat="45.39985" lon="5.89084">
        <ele>857.77</ele>
        <time>2017-09-23T05:36:13Z</time>
      </trkpt>
      <trkpt lat="45.39978" lon="5.89075">
        <ele>862.48</ele>
        <time>2017-09-23T05:36:19Z</time>
      </trkpt>
      <trkpt lat="45.3997" lon="5.89068">
        <ele>866.77</ele>
        <time>2017-09-23T05:36:26Z</time>
      </trkpt>
      <trkpt lat="45.39962" lon="5.8906">
        <ele>865.98</ele>
        <time>2017-09-23T05:36:34Z</time>
      </trkpt>
      <trkpt lat="45.39952" lon="5.89059">
        <ele>865.65</ele>
        <time>2017-09-23T05:36:42Z</time>
      </trkpt>
      <trkpt lat="45.39942" lon="5.89059">
        <ele>865.24</ele>
        <time>2017-09-23T05:36:49Z</time>
      </trkpt>
      <trkpt lat="45.39932" lon="5.89059">
        <ele>871.04</ele>
        <time>2017-09-23T05:36:57Z</time>
      </trkpt>
      <trkpt lat="45.39924" lon="5.89052">
        <ele>870.14</ele>
        <time>2017-09-23T05:37:06Z</time>
      </trkpt>
      <trkpt lat="45.39915" lon="5.89047">
        <ele>868.94</ele>
        <time>2017-09-23T05:37:17Z</time>
      </trkpt>
      <trkpt lat="45.39906" lon="5.89043">
        <ele>865.47</ele>
        <time>2017-09-23T05:37:23Z</time>
      </trkpt>
      <trkpt lat="45.39896" lon="5.89042">
        <ele>874.07</ele>
        <time>2017-09-23T05:37:28Z</time>
      </trkpt>
      <trkpt lat="45.39886" lon="5.89041">
        <ele>872.53</ele>
        <time>2017-09-23T05:37:33Z</time>
      </trkpt>
      <trkpt lat="45.39877" lon="5.89041">
        <ele>868.89</ele>
        <time>2017-09-23T05:37:39Z</time>
      </trkpt>
      <trkpt lat="45.39868" lon="5.8904">
        <ele>870.18</ele>
        <time>2017-09-23T05:37:45Z</time>
      </trkpt>
      <trkpt lat="45.3986" lon="5.89034">
        <ele>866.68</ele>
        <time>2017-09-23T05:37:53Z</time>
      </trkpt>
      <trkpt lat="45.39852" lon="5.89024">
        <ele>870.61</ele>
        <time>2017-09-23T05:38:01Z</time>
      </trkpt>
      <trkpt lat="45.39847" lon="5.89013">
        <ele>869.54</ele>
        <time>2017-09-23T05:38:10Z</time>
      </trkpt>
      <trkpt lat="45.39845" lon="5.89">
        <ele>865.48</ele>
        <time>2017-09-23T05:38:20Z</time>
      </trkpt>
      <trkpt lat="45.39843" lon="5.88987">
        <ele>862.17</ele>
        <time>2017-09-23T05:38:37Z</time>
      </trkpt>
      <trkpt lat="45.39838" lon="5.88976">
        <ele>865.78</ele>
        <time>2017-09-23T05:38:45Z</time>
      </trkpt>
      <trkpt lat="45.39837" lon="5.88963">
        <ele>864.69</ele>
        <time>2017-09-23T05:38:55Z</time>
      </trkpt>
      <trkpt lat="45.39843" lon="5.88952">
        <ele>863.5</ele>
        <time>2017-09-23T05:39:06Z</time>
      </trkpt>
      <trkpt lat="45.39841" lon="5.8894">
        <ele>872.04</ele>
        <time>2017-09-23T05:39:19Z</time>
      </trkpt>
      <trkpt lat="45.39839" lon="5.88927">
        <ele>873.21</ele>
        <time>2017-09-23T05:39:37Z</time>
      </trkpt>
      <trkpt lat="45.39847" lon="5.8892">
        <ele>871.9</ele>
        <time>2017-09-23T05:39:45Z</time>
      </trkpt>
      <trkpt lat="45.39851" lon="5.88908">
        <ele>878.52</ele>
        <time>2017-09-23T05:40:00Z</time>
      </trkpt>
      <trkpt lat="45.39852" lon="5.88894">
        <ele>880.84</ele>
        <time>2017-09-23T05:40:08Z</time>
      </trkpt>
      <trkpt lat="45.39853" lon="5.88881">
        <ele>888.55</ele>
        <time>2017-09-23T05:40:17Z</time>
      </trkpt>
      <trkpt lat="45.39856" lon="5.88868">
        <ele>885.63</ele>
        <time>2017-09-23T05:40:26Z</time>
      </trkpt>
      <trkpt lat="45.39862" lon="5.88857">
        <ele>882.24</ele>
        <time>2017-09-23T05:40:37Z</time>
      </trkpt>
      <trkpt lat="45.39861" lon="5.88842">
        <ele>882.36</ele>
        <time>2017-09-23T05:40:46Z</time>
      </trkpt>
      <trkpt lat="45.39853" lon="5.88834">
        <ele>881.9</ele>
        <time>2017-09-23T05:40:52Z</time>
      </trkpt>
      <trkpt lat="45.39845" lon="5.88826">
        <ele>876.49</ele>
        <time>2017-09-23T05:40:59Z</time>
      </trkpt>
      <trkpt lat="45.39836" lon="5.88822">
        <ele>878.2</ele>
        <time>2017-09-23T05:41:13Z</time>
      </trkpt>
      <trkpt lat="45.39827" lon="5.88819">
        <ele>884.49</ele>
        <time>2017-09-23T05:41:23Z</time>
      </trkpt>
      <trkpt lat="45.39818" lon="5.88817">
        <ele>892.77</ele>
        <time>2017-09-23T05:41:34Z</time>
      </trkpt>
      <trkpt lat="45.39809" lon="5.88813">
        <ele>898.69</ele>
        <time>2017-09-23T05:41:55Z</time>
      </trkpt>
      <trkpt lat="45.398" lon="5.88811">
        <ele>901.3</ele>
        <time>2017-09-23T05:42:23Z</time>
      </trkpt>
      <trkpt lat="45.39792" lon="5.88805">
        <ele>902.93</ele>
        <time>2017-09-23T05:42:29Z</time>
      </trkpt>
      <trkpt lat="45.39783" lon="5.88802">
        <ele>906.4</ele>
        <time>2017-09-23T05:42:37Z</time>
      </trkpt>
      <trkpt lat="45.39773" lon="5.88796">
        <ele>910.14</ele>
        <time>2017-09-23T05:42:42Z</time>
      </trkpt>
      <trkpt lat="45.39765" lon="5.8879">
        <ele>913.96</ele>
        <time>2017-09-23T05:42:49Z</time>
      </trkpt>
      <trkpt lat="45.39756" lon="5.88782">
        <ele>912.89</ele>
        <time>2017-09-23T05:43:19Z</time>
      </trkpt>
      <trkpt lat="45.39748" lon="5.88776">
        <ele>918.84</ele>
        <time>2017-09-23T05:43:27Z</time>
      </trkpt>
      <trkpt lat="45.39738" lon="5.88772">
        <ele>921.54</ele>
        <time>2017-09-23T05:43:39Z</time>
      </trkpt>
      <trkpt lat="45.39728" lon="5.8877">
        <ele>922.58</ele>
        <time>2017-09-23T05:43:45Z</time>
      </trkpt>
      <trkpt lat="45.39718" lon="5.8877">
        <ele>926.29</ele>
        <time>2017-09-23T05:43:50Z</time>
      </trkpt>
      <trkpt lat="45.39708" lon="5.88767">
        <ele>928.74</ele>
        <time>2017-09-23T05:43:56Z</time>
      </trkpt>
      <trkpt lat="45.39697" lon="5.88769">
        <ele>928.72</ele>
        <time>2017-09-23T05:44:02Z</time>
      </trkpt>
      <trkpt lat="45.39687" lon="5.8877">
        <ele>929.79</ele>
        <time>2017-09-23T05:44:12Z</time>
      </trkpt>
      <trkpt lat="45.39678" lon="5.88771">
        <ele>930.26</ele>
        <time>2017-09-23T05:44:34Z</time>
      </trkpt>
      <trkpt lat="45.39669" lon="5.88774">
        <ele>927.76</ele>
        <time>2017-09-23T05:44:40Z</time>
      </trkpt>
      <trkpt lat="45.39659" lon="5.88777">
        <ele>928.3</ele>
        <time>2017-09-23T05:44:44Z</time>
      </trkpt>
      <trkpt lat="45.3965" lon="5.88781">
        <ele>930.78</ele>
        <time>2017-09-23T05:45:05Z</time>
      </trkpt>
      <trkpt lat="45.39642" lon="5.8879">
        <ele>926.58</ele>
        <time>2017-09-23T05:45:11Z</time>
      </trkpt>
      <trkpt lat="45.39634" lon="5.88798">
        <ele>930.27</ele>
        <time>2017-09-23T05:45:16Z</time>
      </trkpt>
      <trkpt lat="45.39625" lon="5.88804">
        <ele>944.17</ele>
        <time>2017-09-23T05:45:23Z</time>
      </trkpt>
      <trkpt lat="45.39618" lon="5.88812">
        <ele>944.18</ele>
        <time>2017-09-23T05:45:31Z</time>
      </trkpt>
      <trkpt lat="45.3961" lon="5.88817">
        <ele>941.88</ele>
        <time>2017-09-23T05:45:41Z</time>
      </trkpt>
      <trkpt lat="45.39599" lon="5.88818">
        <ele>946.37</ele>
        <time>2017-09-23T05:46:12Z</time>
      </trkpt>
      <trkpt lat="45.3959" lon="5.88821">
        <ele>943.56</ele>
        <time>2017-09-23T05:46:19Z</time>
      </trkpt>
      <trkpt lat="45.39583" lon="5.8883">
        <ele>945.33</ele>
        <time>2017-09-23T05:46:30Z</time>
      </trkpt>
      <trkpt lat="45.39574" lon="5.88836">
        <ele>948.57</ele>
        <time>2017-09-23T05:46:37Z</time>
      </trkpt>
      <trkpt lat="45.39564" lon="5.88836">
        <ele>948.97</ele>
        <time>2017-09-23T05:46:48Z</time>
      </trkpt>
      <trkpt lat="45.39556" lon="5.88829">
        <ele>950.69</ele>
        <time>2017-09-23T05:46:55Z</time>
      </trkpt>
      <trkpt lat="45.39547" lon="5.88829">
        <ele>948.03</ele>
        <time>2017-09-23T05:47:01Z</time>
      </trkpt>
      <trkpt lat="45.39538" lon="5.88825">
        <ele>949.45</ele>
        <time>2017-09-23T05:47:09Z</time>
      </trkpt>
      <trkpt lat="45.39529" lon="5.88823">
        <ele>951.58</ele>
        <time>2017-09-23T05:47:39Z</time>
      </trkpt>
      <trkpt lat="45.3952" lon="5.88827">
        <ele>951.27</ele>
        <time>2017-09-23T05:47:45Z</time>
      </trkpt>
      <trkpt lat="45.3951" lon="5.88831">
        <ele>956.29</ele>
        <time>2017-09-23T05:47:50Z</time>
      </trkpt>
      <trkpt lat="45.39501" lon="5.88839">
        <ele>959.19</ele>
        <time>2017-09-23T05:48:00Z</time>
      </trkpt>
      <trkpt lat="45.39491" lon="5.88843">
        <ele>967.15</ele>
        <time>2017-09-23T05:48:08Z</time>
      </trkpt>
      <trkpt lat="45.39481" lon="5.88847">
        <ele>959.5</ele>
        <time>2017-09-23T05:48:13Z</time>
      </trkpt>
      <trkpt lat="45.39472" lon="5.8885">
        <ele>955.94</ele>
        <time>2017-09-23T05:48:20Z</time>
      </trkpt>
      <trkpt lat="45.39463" lon="5.88855">
        <ele>951.9</ele>
        <time>2017-09-23T05:48:26Z</time>
      </trkpt>
      <trkpt lat="45.3946" lon="5.88867">
        <ele>947.49</ele>
        <time>2017-09-23T05:48:36Z</time>
      </trkpt>
      <trkpt lat="45.39458" lon="5.88881">
        <ele>939.13</ele>
        <time>2017-09-23T05:48:44Z</time>
      </trkpt>
      <trkpt lat="45.39461" lon="5.88894">
        <ele>944.64</ele>
        <time>2017-09-23T05:48:52Z</time>
      </trkpt>
      <trkpt lat="45.39457" lon="5.88907">
        <ele>942.95</ele>
        <time>2017-09-23T05:48:58Z</time>
      </trkpt>
      <trkpt lat="45.3945" lon="5.88918">
        <ele>948.26</ele>
        <time>2017-09-23T05:49:05Z</time>
      </trkpt>
      <trkpt lat="45.39445" lon="5.8893">
        <ele>952.81</ele>
        <time>2017-09-23T05:49:10Z</time>
      </trkpt>
      <trkpt lat="45.39447" lon="5.88944">
        <ele>952.08</ele>
        <time>2017-09-23T05:49:19Z</time>
      </trkpt>
      <trkpt lat="45.39452" lon="5.88955">
        <ele>960.64</ele>
        <time>2017-09-23T05:49:28Z</time>
      </trkpt>
      <trkpt lat="45.39444" lon="5.88964">
        <ele>968.42</ele>
        <time>2017-09-23T05:49:50Z</time>
      </trkpt>
      <trkpt lat="45.39437" lon="5.88973">
        <ele>963.96</ele>
        <time>2017-09-23T05:49:57Z</time>
      </trkpt>
      <trkpt lat="45.39436" lon="5.88987">
        <ele>962.8</ele>
        <time>2017-09-23T05:50:08Z</time>
      </trkpt>
      <trkpt lat="45.39429" lon="5.88996">
        <ele>969.47</ele>
        <time>2017-09-23T05:51:06Z</time>
      </trkpt>
      <trkpt lat="45.39417" lon="5.88997">
        <ele>968.09</ele>
        <time>2017-09-23T05:51:46Z</time>
      </trkpt>
      <trkpt lat="45.39407" lon="5.88995">
        <ele>965.15</ele>
        <time>2017-09-23T05:51:54Z</time>
      </trkpt>
      <trkpt lat="45.39398" lon="5.88991">
        <ele>973.28</ele>
        <time>2017-09-23T05:52:10Z</time>
      </trkpt>
      <trkpt lat="45.39388" lon="5.8899">
        <ele>982.98</ele>
        <time>2017-09-23T05:52:33Z</time>
      </trkpt>
      <trkpt lat="45.39379" lon="5.88992">
        <ele>982.18</ele>
        <time>2017-09-23T05:52:38Z</time>
      </trkpt>
      <trkpt lat="45.39369" lon="5.88996">
        <ele>980.89</ele>
        <time>2017-09-23T05:52:43Z</time>
      </trkpt>
      <trkpt lat="45.39359" lon="5.88999">
        <ele>983.8</ele>
        <time>2017-09-23T05:52:48Z</time>
      </trkpt>
      <trkpt lat="45.3935" lon="5.89002">
        <ele>981.98</ele>
        <time>2017-09-23T05:52:52Z</time>
      </trkpt>
      <trkpt lat="45.39342" lon="5.89011">
        <ele>991.08</ele>
        <time>2017-09-23T05:53:04Z</time>
      </trkpt>
      <trkpt lat="45.39332" lon="5.89014">
        <ele>997.15</ele>
        <time>2017-09-23T05:53:13Z</time>
      </trkpt>
      <trkpt lat="45.39323" lon="5.89018">
        <ele>994.88</ele>
        <time>2017-09-23T05:53:22Z</time>
      </trkpt>
      <trkpt lat="45.39314" lon="5.89022">
        <ele>991.82</ele>
        <time>2017-09-23T05:53:34Z</time>
      </trkpt>
      <trkpt lat="45.39305" lon="5.89022">
        <ele>1002.33</ele>
        <time>2017-09-23T05:54:01Z</time>
      </trkpt>
      <trkpt lat="45.39296" lon="5.89019">
        <ele>1012.72</ele>
        <time>2017-09-23T05:54:19Z</time>
      </trkpt>
      <trkpt lat="45.39287" lon="5.89025">
        <ele>1017.26</ele>
        <time>2017-09-23T05:54:28Z</time>
      </trkpt>
      <trkpt lat="45.39277" lon="5.89027">
        <ele>1033.06</ele>
        <time>2017-09-23T05:55:19Z</time>
      </trkpt>
      <trkpt lat="45.39265" lon="5.8903">
        <ele>1054.68</ele>
        <time>2017-09-23T05:58:52Z</time>
      </trkpt>
      <trkpt lat="45.39244" lon="5.89043">
        <ele>1053.42</ele>
        <time>2017-09-23T05:58:53Z</time>
      </trkpt>
      <trkpt lat="45.39234" lon="5.8905">
        <ele>1050.36</ele>
        <time>2017-09-23T05:58:57Z</time>
      </trkpt>
      <trkpt lat="45.39225" lon="5.89058">
        <ele>1045.61</ele>
        <time>2017-09-23T05:59:01Z</time>
      </trkpt>
      <trkpt lat="45.39215" lon="5.89067">
        <ele>1040.32</ele>
        <time>2017-09-23T05:59:05Z</time>
      </trkpt>
      <trkpt lat="45.39208" lon="5.89076">
        <ele>1038.91</ele>
        <time>2017-09-23T06:01:33Z</time>
      </trkpt>
      <trkpt lat="45.39206" lon="5.89089">
        <ele>1038.62</ele>
        <time>2017-09-23T06:02:53Z</time>
      </trkpt>
      <trkpt lat="45.39207" lon="5.89102">
        <ele>1031.12</ele>
        <time>2017-09-23T06:03:30Z</time>
      </trkpt>
      <trkpt lat="45.39214" lon="5.89141">
        <ele>1039.09</ele>
        <time>2017-09-23T06:04:00Z</time>
      </trkpt>
      <trkpt lat="45.39205" lon="5.89145">
        <ele>1035.62</ele>
        <time>2017-09-23T06:04:37Z</time>
      </trkpt>
      <trkpt lat="45.39197" lon="5.89148">
        <ele>1025.72</ele>
        <time>2017-09-23T06:04:47Z</time>
      </trkpt>
      <trkpt lat="45.39191" lon="5.89158">
        <ele>1019.07</ele>
        <time>2017-09-23T06:05:18Z</time>
      </trkpt>
      <trkpt lat="45.39182" lon="5.89162">
        <ele>1023.76</ele>
        <time>2017-09-23T06:06:23Z</time>
      </trkpt>
      <trkpt lat="45.39182" lon="5.89175">
        <ele>1026.61</ele>
        <time>2017-09-23T06:06:56Z</time>
      </trkpt>
      <trkpt lat="45.39186" lon="5.89187">
        <ele>1022.45</ele>
        <time>2017-09-23T06:07:09Z</time>
      </trkpt>
      <trkpt lat="45.3919" lon="5.89199">
        <ele>1030.36</ele>
        <time>2017-09-23T06:07:26Z</time>
      </trkpt>
      <trkpt lat="45.39199" lon="5.89203">
        <ele>1037.76</ele>
        <time>2017-09-23T06:07:42Z</time>
      </trkpt>
      <trkpt lat="45.39206" lon="5.89211">
        <ele>1041.67</ele>
        <time>2017-09-23T06:08:14Z</time>
      </trkpt>
      <trkpt lat="45.39203" lon="5.89224">
        <ele>1045.88</ele>
        <time>2017-09-23T06:08:58Z</time>
      </trkpt>
      <trkpt lat="45.39194" lon="5.89226">
        <ele>1049.78</ele>
        <time>2017-09-23T06:09:21Z</time>
      </trkpt>
      <trkpt lat="45.39186" lon="5.89232">
        <ele>1055.04</ele>
        <time>2017-09-23T06:09:52Z</time>
      </trkpt>
      <trkpt lat="45.39181" lon="5.89243">
        <ele>1059.84</ele>
        <time>2017-09-23T06:10:06Z</time>
      </trkpt>
      <trkpt lat="45.39183" lon="5.89256">
        <ele>1076.49</ele>
        <time>2017-09-23T06:10:56Z</time>
      </trkpt>
      <trkpt lat="45.39175" lon="5.89259">
        <ele>1080.54</ele>
        <time>2017-09-23T06:11:28Z</time>
      </trkpt>
      <trkpt lat="45.39165" lon="5.89259">
        <ele>1091.8</ele>
        <time>2017-09-23T06:11:57Z</time>
      </trkpt>
      <trkpt lat="45.39156" lon="5.89261">
        <ele>1100.88</ele>
        <time>2017-09-23T06:12:29Z</time>
      </trkpt>
      <trkpt lat="45.39147" lon="5.8926">
        <ele>1104.85</ele>
        <time>2017-09-23T06:12:53Z</time>
      </trkpt>
      <trkpt lat="45.39145" lon="5.89274">
        <ele>1105.01</ele>
        <time>2017-09-23T06:13:33Z</time>
      </trkpt>
      <trkpt lat="45.39146" lon="5.89287">
        <ele>1110.2</ele>
        <time>2017-09-23T06:13:43Z</time>
      </trkpt>
      <trkpt lat="45.39144" lon="5.89301">
        <ele>1111.49</ele>
        <time>2017-09-23T06:13:54Z</time>
      </trkpt>
      <trkpt lat="45.39147" lon="5.89313">
        <ele>1115.75</ele>
        <time>2017-09-23T06:14:10Z</time>
      </trkpt>
      <trkpt lat="45.3915" lon="5.89325">
        <ele>1118.88</ele>
        <time>2017-09-23T06:14:26Z</time>
      </trkpt>
      <trkpt lat="45.39153" lon="5.89338">
        <ele>1115.46</ele>
        <time>2017-09-23T06:15:07Z</time>
      </trkpt>
      <trkpt lat="45.39159" lon="5.89347">
        <ele>1119.5</ele>
        <time>2017-09-23T06:15:54Z</time>
      </trkpt>
      <trkpt lat="45.39152" lon="5.89341">
        <ele>1143.88</ele>
        <time>2017-09-23T06:17:25Z</time>
      </trkpt>
      <trkpt lat="45.39142" lon="5.89337">
        <ele>1142.61</ele>
        <time>2017-09-23T06:17:39Z</time>
      </trkpt>
      <trkpt lat="45.39134" lon="5.8933">
        <ele>1145.85</ele>
        <time>2017-09-23T06:17:58Z</time>
      </trkpt>
      <trkpt lat="45.39125" lon="5.89328">
        <ele>1146.91</ele>
        <time>2017-09-23T06:18:11Z</time>
      </trkpt>
      <trkpt lat="45.39123" lon="5.89341">
        <ele>1146.83</ele>
        <time>2017-09-23T06:18:49Z</time>
      </trkpt>
      <trkpt lat="45.39126" lon="5.89354">
        <ele>1150.79</ele>
        <time>2017-09-23T06:19:00Z</time>
      </trkpt>
      <trkpt lat="45.3913" lon="5.89366">
        <ele>1154.88</ele>
        <time>2017-09-23T06:19:12Z</time>
      </trkpt>
      <trkpt lat="45.39135" lon="5.8938">
        <ele>1162.06</ele>
        <time>2017-09-23T06:19:32Z</time>
      </trkpt>
      <trkpt lat="45.39139" lon="5.89393">
        <ele>1160.36</ele>
        <time>2017-09-23T06:19:53Z</time>
      </trkpt>
      <trkpt lat="45.39141" lon="5.89407">
        <ele>1164.9</ele>
        <time>2017-09-23T06:20:19Z</time>
      </trkpt>
      <trkpt lat="45.39144" lon="5.8942">
        <ele>1165.93</ele>
        <time>2017-09-23T06:20:46Z</time>
      </trkpt>
      <trkpt lat="45.39145" lon="5.89433">
        <ele>1162.8</ele>
        <time>2017-09-23T06:20:55Z</time>
      </trkpt>
      <trkpt lat="45.39145" lon="5.89447">
        <ele>1157.05</ele>
        <time>2017-09-23T06:21:02Z</time>
      </trkpt>
      <trkpt lat="45.39135" lon="5.89445">
        <ele>1160.87</ele>
        <time>2017-09-23T06:21:25Z</time>
      </trkpt>
      <trkpt lat="45.39128" lon="5.89437">
        <ele>1164.54</ele>
        <time>2017-09-23T06:21:46Z</time>
      </trkpt>
      <trkpt lat="45.39122" lon="5.89425">
        <ele>1179.27</ele>
        <time>2017-09-23T06:22:48Z</time>
      </trkpt>
      <trkpt lat="45.39114" lon="5.89418">
        <ele>1180.9</ele>
        <time>2017-09-23T06:23:01Z</time>
      </trkpt>
      <trkpt lat="45.39105" lon="5.89416">
        <ele>1185.35</ele>
        <time>2017-09-23T06:23:26Z</time>
      </trkpt>
      <trkpt lat="45.39101" lon="5.89405">
        <ele>1186.87</ele>
        <time>2017-09-23T06:23:47Z</time>
      </trkpt>
      <trkpt lat="45.39111" lon="5.89407">
        <ele>1183.36</ele>
        <time>2017-09-23T06:25:14Z</time>
      </trkpt>
      <trkpt lat="45.39114" lon="5.89421">
        <ele>1175.32</ele>
        <time>2017-09-23T06:25:19Z</time>
      </trkpt>
      <trkpt lat="45.39123" lon="5.89427">
        <ele>1176.41</ele>
        <time>2017-09-23T06:25:32Z</time>
      </trkpt>
      <trkpt lat="45.39129" lon="5.89438">
        <ele>1171.76</ele>
        <time>2017-09-23T06:25:38Z</time>
      </trkpt>
      <trkpt lat="45.39138" lon="5.89445">
        <ele>1171.14</ele>
        <time>2017-09-23T06:25:44Z</time>
      </trkpt>
      <trkpt lat="45.39144" lon="5.89434">
        <ele>1166.98</ele>
        <time>2017-09-23T06:26:14Z</time>
      </trkpt>
      <trkpt lat="45.39144" lon="5.8942">
        <ele>1164.93</ele>
        <time>2017-09-23T06:26:21Z</time>
      </trkpt>
      <trkpt lat="45.39142" lon="5.89407">
        <ele>1151.3</ele>
        <time>2017-09-23T06:27:36Z</time>
      </trkpt>
      <trkpt lat="45.39135" lon="5.89398">
        <ele>1148.17</ele>
        <time>2017-09-23T06:27:54Z</time>
      </trkpt>
      <trkpt lat="45.39131" lon="5.89386">
        <ele>1147.69</ele>
        <time>2017-09-23T06:28:00Z</time>
      </trkpt>
      <trkpt lat="45.39131" lon="5.89372">
        <ele>1159.22</ele>
        <time>2017-09-23T06:28:27Z</time>
      </trkpt>
      <trkpt lat="45.39127" lon="5.8936">
        <ele>1155.67</ele>
        <time>2017-09-23T06:28:37Z</time>
      </trkpt>
      <trkpt lat="45.39124" lon="5.89346">
        <ele>1158.34</ele>
        <time>2017-09-23T06:28:54Z</time>
      </trkpt>
      <trkpt lat="45.39123" lon="5.89333">
        <ele>1154.88</ele>
        <time>2017-09-23T06:29:04Z</time>
      </trkpt>
      <trkpt lat="45.39122" lon="5.8932">
        <ele>1161.7</ele>
        <time>2017-09-23T06:29:59Z</time>
      </trkpt>
      <trkpt lat="45.39126" lon="5.89332">
        <ele>1158.25</ele>
        <time>2017-09-23T06:30:21Z</time>
      </trkpt>
      <trkpt lat="45.39128" lon="5.89344">
        <ele>1159.11</ele>
        <time>2017-09-23T06:30:31Z</time>
      </trkpt>
      <trkpt lat="45.39129" lon="5.89359">
        <ele>1158.13</ele>
        <time>2017-09-23T06:30:38Z</time>
      </trkpt>
      <trkpt lat="45.39132" lon="5.89372">
        <ele>1155.03</ele>
        <time>2017-09-23T06:30:41Z</time>
      </trkpt>
      <trkpt lat="45.39133" lon="5.89387">
        <ele>1154.87</ele>
        <time>2017-09-23T06:30:50Z</time>
      </trkpt>
      <trkpt lat="45.39136" lon="5.89399">
        <ele>1155.88</ele>
        <time>2017-09-23T06:31:02Z</time>
      </trkpt>
      <trkpt lat="45.39144" lon="5.89409">
        <ele>1154.83</ele>
        <time>2017-09-23T06:31:08Z</time>
      </trkpt>
      <trkpt lat="45.39145" lon="5.89422">
        <ele>1158.87</ele>
        <time>2017-09-23T06:31:40Z</time>
      </trkpt>
      <trkpt lat="45.39148" lon="5.89435">
        <ele>1156.56</ele>
        <time>2017-09-23T06:31:50Z</time>
      </trkpt>
      <trkpt lat="45.39143" lon="5.89447">
        <ele>1158.26</ele>
        <time>2017-09-23T06:32:30Z</time>
      </trkpt>
      <trkpt lat="45.39133" lon="5.89444">
        <ele>1163.44</ele>
        <time>2017-09-23T06:33:33Z</time>
      </trkpt>
      <trkpt lat="45.39125" lon="5.89435">
        <ele>1163.15</ele>
        <time>2017-09-23T06:33:39Z</time>
      </trkpt>
      <trkpt lat="45.39117" lon="5.89428">
        <ele>1164.09</ele>
        <time>2017-09-23T06:33:49Z</time>
      </trkpt>
      <trkpt lat="45.39108" lon="5.89422">
        <ele>1176.16</ele>
        <time>2017-09-23T06:34:15Z</time>
      </trkpt>
      <trkpt lat="45.39099" lon="5.89415">
        <ele>1182.55</ele>
        <time>2017-09-23T06:34:25Z</time>
      </trkpt>
      <trkpt lat="45.39095" lon="5.89402">
        <ele>1185.49</ele>
        <time>2017-09-23T06:34:33Z</time>
      </trkpt>
      <trkpt lat="45.39087" lon="5.89396">
        <ele>1186.2</ele>
        <time>2017-09-23T06:34:40Z</time>
      </trkpt>
      <trkpt lat="45.39079" lon="5.89388">
        <ele>1196.25</ele>
        <time>2017-09-23T06:34:54Z</time>
      </trkpt>
      <trkpt lat="45.3907" lon="5.89384">
        <ele>1201.78</ele>
        <time>2017-09-23T06:35:14Z</time>
      </trkpt>
      <trkpt lat="45.39062" lon="5.89378">
        <ele>1202.45</ele>
        <time>2017-09-23T06:35:22Z</time>
      </trkpt>
      <trkpt lat="45.39053" lon="5.89369">
        <ele>1204.67</ele>
        <time>2017-09-23T06:35:42Z</time>
      </trkpt>
      <trkpt lat="45.39046" lon="5.8936">
        <ele>1205.79</ele>
        <time>2017-09-23T06:35:47Z</time>
      </trkpt>
      <trkpt lat="45.39039" lon="5.89368">
        <ele>1206.58</ele>
        <time>2017-09-23T06:36:09Z</time>
      </trkpt>
      <trkpt lat="45.39046" lon="5.89379">
        <ele>1206.82</ele>
        <time>2017-09-23T06:36:17Z</time>
      </trkpt>
      <trkpt lat="45.39053" lon="5.89388">
        <ele>1210.53</ele>
        <time>2017-09-23T06:36:27Z</time>
      </trkpt>
      <trkpt lat="45.39062" lon="5.89398">
        <ele>1214.04</ele>
        <time>2017-09-23T06:36:37Z</time>
      </trkpt>
      <trkpt lat="45.3907" lon="5.89407">
        <ele>1209.07</ele>
        <time>2017-09-23T06:36:44Z</time>
      </trkpt>
      <trkpt lat="45.39077" lon="5.89418">
        <ele>1210.46</ele>
        <time>2017-09-23T06:36:50Z</time>
      </trkpt>
      <trkpt lat="45.39086" lon="5.89421">
        <ele>1213.56</ele>
        <time>2017-09-23T06:37:00Z</time>
      </trkpt>
      <trkpt lat="45.39095" lon="5.89428">
        <ele>1209.79</ele>
        <time>2017-09-23T06:37:08Z</time>
      </trkpt>
      <trkpt lat="45.39099" lon="5.89441">
        <ele>1216.81</ele>
        <time>2017-09-23T06:38:30Z</time>
      </trkpt>
      <trkpt lat="45.39103" lon="5.89456">
        <ele>1220.37</ele>
        <time>2017-09-23T06:38:39Z</time>
      </trkpt>
      <trkpt lat="45.39107" lon="5.89468">
        <ele>1214.07</ele>
        <time>2017-09-23T06:38:46Z</time>
      </trkpt>
      <trkpt lat="45.39113" lon="5.8948">
        <ele>1213.27</ele>
        <time>2017-09-23T06:39:28Z</time>
      </trkpt>
      <trkpt lat="45.39114" lon="5.89492">
        <ele>1206.96</ele>
        <time>2017-09-23T06:39:55Z</time>
      </trkpt>
      <trkpt lat="45.39115" lon="5.89506">
        <ele>1200.33</ele>
        <time>2017-09-23T06:39:59Z</time>
      </trkpt>
      <trkpt lat="45.39124" lon="5.89509">
        <ele>1205.27</ele>
        <time>2017-09-23T06:42:07Z</time>
      </trkpt>
      <trkpt lat="45.39133" lon="5.89511">
        <ele>1208.61</ele>
        <time>2017-09-23T06:42:20Z</time>
      </trkpt>
      <trkpt lat="45.39139" lon="5.895">
        <ele>1212.08</ele>
        <time>2017-09-23T06:42:39Z</time>
      </trkpt>
      <trkpt lat="45.39144" lon="5.89488">
        <ele>1242.25</ele>
        <time>2017-09-23T06:44:05Z</time>
      </trkpt>
      <trkpt lat="45.39153" lon="5.89494">
        <ele>1235.18</ele>
        <time>2017-09-23T06:45:18Z</time>
      </trkpt>
      <trkpt lat="45.39155" lon="5.89507">
        <ele>1235.77</ele>
        <time>2017-09-23T06:45:26Z</time>
      </trkpt>
      <trkpt lat="45.39162" lon="5.89516">
        <ele>1236.95</ele>
        <time>2017-09-23T06:46:03Z</time>
      </trkpt>
      <trkpt lat="45.39168" lon="5.89506">
        <ele>1243.22</ele>
        <time>2017-09-23T06:46:52Z</time>
      </trkpt>
      <trkpt lat="45.39173" lon="5.89493">
        <ele>1251.27</ele>
        <time>2017-09-23T06:46:57Z</time>
      </trkpt>
      <trkpt lat="45.39184" lon="5.89495">
        <ele>1253.6</ele>
        <time>2017-09-23T06:47:04Z</time>
      </trkpt>
      <trkpt lat="45.39192" lon="5.89503">
        <ele>1255.9</ele>
        <time>2017-09-23T06:47:07Z</time>
      </trkpt>
      <trkpt lat="45.39201" lon="5.89506">
        <ele>1254.77</ele>
        <time>2017-09-23T06:47:43Z</time>
      </trkpt>
      <trkpt lat="45.3921" lon="5.89506">
        <ele>1262.83</ele>
        <time>2017-09-23T06:48:01Z</time>
      </trkpt>
      <trkpt lat="45.39219" lon="5.89512">
        <ele>1250.44</ele>
        <time>2017-09-23T06:48:41Z</time>
      </trkpt>
      <trkpt lat="45.39226" lon="5.89502">
        <ele>1256.96</ele>
        <time>2017-09-23T06:48:55Z</time>
      </trkpt>
      <trkpt lat="45.39227" lon="5.89489">
        <ele>1260.51</ele>
        <time>2017-09-23T06:49:03Z</time>
      </trkpt>
      <trkpt lat="45.39232" lon="5.89502">
        <ele>1256.99</ele>
        <time>2017-09-23T06:50:04Z</time>
      </trkpt>
      <trkpt lat="45.39237" lon="5.89518">
        <ele>1258.7</ele>
        <time>2017-09-23T06:50:22Z</time>
      </trkpt>
      <trkpt lat="45.39244" lon="5.89531">
        <ele>1260.42</ele>
        <time>2017-09-23T06:50:25Z</time>
      </trkpt>
      <trkpt lat="45.3925" lon="5.89541">
        <ele>1261.58</ele>
        <time>2017-09-23T06:50:35Z</time>
      </trkpt>
      <trkpt lat="45.39248" lon="5.89555">
        <ele>1261.52</ele>
        <time>2017-09-23T06:50:46Z</time>
      </trkpt>
      <trkpt lat="45.39249" lon="5.89568">
        <ele>1258.85</ele>
        <time>2017-09-23T06:50:50Z</time>
      </trkpt>
      <trkpt lat="45.39252" lon="5.89581">
        <ele>1254.19</ele>
        <time>2017-09-23T06:50:55Z</time>
      </trkpt>
      <trkpt lat="45.39258" lon="5.89592">
        <ele>1248.64</ele>
        <time>2017-09-23T06:51:00Z</time>
      </trkpt>
      <trkpt lat="45.39259" lon="5.89605">
        <ele>1251.09</ele>
        <time>2017-09-23T06:51:06Z</time>
      </trkpt>
      <trkpt lat="45.39263" lon="5.89617">
        <ele>1250.99</ele>
        <time>2017-09-23T06:51:16Z</time>
      </trkpt>
      <trkpt lat="45.39266" lon="5.89631">
        <ele>1249.18</ele>
        <time>2017-09-23T06:51:28Z</time>
      </trkpt>
      <trkpt lat="45.39271" lon="5.89642">
        <ele>1247.94</ele>
        <time>2017-09-23T06:52:04Z</time>
      </trkpt>
      <trkpt lat="45.39277" lon="5.89652">
        <ele>1250.25</ele>
        <time>2017-09-23T06:52:59Z</time>
      </trkpt>
      <trkpt lat="45.39284" lon="5.8966">
        <ele>1262.58</ele>
        <time>2017-09-23T06:56:50Z</time>
      </trkpt>
      <trkpt lat="45.39282" lon="5.89646">
        <ele>1273.31</ele>
        <time>2017-09-23T06:58:14Z</time>
      </trkpt>
      <trkpt lat="45.39276" lon="5.89635">
        <ele>1274.56</ele>
        <time>2017-09-23T06:58:17Z</time>
      </trkpt>
      <trkpt lat="45.39275" lon="5.89621">
        <ele>1296.7</ele>
        <time>2017-09-23T06:58:50Z</time>
      </trkpt>
      <trkpt lat="45.39265" lon="5.89616">
        <ele>1294.37</ele>
        <time>2017-09-23T06:58:55Z</time>
      </trkpt>
      <trkpt lat="45.3926" lon="5.89604">
        <ele>1303.81</ele>
        <time>2017-09-23T06:59:05Z</time>
      </trkpt>
      <trkpt lat="45.39251" lon="5.89598">
        <ele>1305.69</ele>
        <time>2017-09-23T06:59:42Z</time>
      </trkpt>
      <trkpt lat="45.39242" lon="5.89593">
        <ele>1309.84</ele>
        <time>2017-09-23T07:00:11Z</time>
      </trkpt>
      <trkpt lat="45.39236" lon="5.89584">
        <ele>1322.62</ele>
        <time>2017-09-23T07:00:33Z</time>
      </trkpt>
      <trkpt lat="45.3923" lon="5.89574">
        <ele>1327.79</ele>
        <time>2017-09-23T07:00:50Z</time>
      </trkpt>
      <trkpt lat="45.39225" lon="5.89563">
        <ele>1329.69</ele>
        <time>2017-09-23T07:01:07Z</time>
      </trkpt>
      <trkpt lat="45.39221" lon="5.89551">
        <ele>1333.19</ele>
        <time>2017-09-23T07:01:22Z</time>
      </trkpt>
      <trkpt lat="45.39217" lon="5.89539">
        <ele>1333.9</ele>
        <time>2017-09-23T07:01:32Z</time>
      </trkpt>
      <trkpt lat="45.3921" lon="5.8953">
        <ele>1339.44</ele>
        <time>2017-09-23T07:01:38Z</time>
      </trkpt>
      <trkpt lat="45.39205" lon="5.89519">
        <ele>1342.6</ele>
        <time>2017-09-23T07:01:54Z</time>
      </trkpt>
      <trkpt lat="45.39199" lon="5.89509">
        <ele>1339.55</ele>
        <time>2017-09-23T07:02:06Z</time>
      </trkpt>
      <trkpt lat="45.39192" lon="5.89501">
        <ele>1343.47</ele>
        <time>2017-09-23T07:02:12Z</time>
      </trkpt>
      <trkpt lat="45.39184" lon="5.89494">
        <ele>1343.84</ele>
        <time>2017-09-23T07:02:22Z</time>
      </trkpt>
      <trkpt lat="45.39176" lon="5.89489">
        <ele>1341.97</ele>
        <time>2017-09-23T07:02:38Z</time>
      </trkpt>
      <trkpt lat="45.39167" lon="5.89492">
        <ele>1340.32</ele>
        <time>2017-09-23T07:02:49Z</time>
      </trkpt>
      <trkpt lat="45.39157" lon="5.89485">
        <ele>1343</ele>
        <time>2017-09-23T07:03:01Z</time>
      </trkpt>
      <trkpt lat="45.39148" lon="5.89481">
        <ele>1344.98</ele>
        <time>2017-09-23T07:03:10Z</time>
      </trkpt>
      <trkpt lat="45.39139" lon="5.89477">
        <ele>1348.68</ele>
        <time>2017-09-23T07:03:49Z</time>
      </trkpt>
      <trkpt lat="45.3913" lon="5.8947">
        <ele>1350.51</ele>
        <time>2017-09-23T07:03:58Z</time>
      </trkpt>
      <trkpt lat="45.39121" lon="5.89466">
        <ele>1349.93</ele>
        <time>2017-09-23T07:04:04Z</time>
      </trkpt>
      <trkpt lat="45.39112" lon="5.89471">
        <ele>1345.47</ele>
        <time>2017-09-23T07:04:12Z</time>
      </trkpt>
      <trkpt lat="45.39103" lon="5.89476">
        <ele>1347.54</ele>
        <time>2017-09-23T07:04:24Z</time>
      </trkpt>
      <trkpt lat="45.39094" lon="5.89474">
        <ele>1351.27</ele>
        <time>2017-09-23T07:04:32Z</time>
      </trkpt>
      <trkpt lat="45.39084" lon="5.89472">
        <ele>1351.33</ele>
        <time>2017-09-23T07:04:40Z</time>
      </trkpt>
      <trkpt lat="45.39075" lon="5.89477">
        <ele>1346.94</ele>
        <time>2017-09-23T07:04:48Z</time>
      </trkpt>
      <trkpt lat="45.39066" lon="5.89475">
        <ele>1351.43</ele>
        <time>2017-09-23T07:04:57Z</time>
      </trkpt>
      <trkpt lat="45.39057" lon="5.89477">
        <ele>1355.11</ele>
        <time>2017-09-23T07:05:09Z</time>
      </trkpt>
      <trkpt lat="45.3905" lon="5.89484">
        <ele>1353.48</ele>
        <time>2017-09-23T07:05:57Z</time>
      </trkpt>
      <trkpt lat="45.39045" lon="5.89495">
        <ele>1360.1</ele>
        <time>2017-09-23T07:06:39Z</time>
      </trkpt>
      <trkpt lat="45.39041" lon="5.89507">
        <ele>1360.61</ele>
        <time>2017-09-23T07:07:06Z</time>
      </trkpt>
      <trkpt lat="45.39039" lon="5.8952">
        <ele>1366.3</ele>
        <time>2017-09-23T07:07:32Z</time>
      </trkpt>
      <trkpt lat="45.39033" lon="5.89529">
        <ele>1382.16</ele>
        <time>2017-09-23T07:08:41Z</time>
      </trkpt>
      <trkpt lat="45.39032" lon="5.89542">
        <ele>1384.84</ele>
        <time>2017-09-23T07:09:25Z</time>
      </trkpt>
      <trkpt lat="45.39034" lon="5.89555">
        <ele>1390.55</ele>
        <time>2017-09-23T07:09:41Z</time>
      </trkpt>
      <trkpt lat="45.39034" lon="5.89569">
        <ele>1403.14</ele>
        <time>2017-09-23T07:10:04Z</time>
      </trkpt>
      <trkpt lat="45.39037" lon="5.89582">
        <ele>1401.79</ele>
        <time>2017-09-23T07:11:22Z</time>
      </trkpt>
      <trkpt lat="45.39041" lon="5.89596">
        <ele>1403.35</ele>
        <time>2017-09-23T07:11:30Z</time>
      </trkpt>
      <trkpt lat="45.39044" lon="5.89609">
        <ele>1405.08</ele>
        <time>2017-09-23T07:11:35Z</time>
      </trkpt>
      <trkpt lat="45.39045" lon="5.89622">
        <ele>1416.11</ele>
        <time>2017-09-23T07:11:46Z</time>
      </trkpt>
      <trkpt lat="45.39044" lon="5.89635">
        <ele>1421.11</ele>
        <time>2017-09-23T07:12:07Z</time>
      </trkpt>
      <trkpt lat="45.39046" lon="5.89649">
        <ele>1423.12</ele>
        <time>2017-09-23T07:12:20Z</time>
      </trkpt>
      <trkpt lat="45.39047" lon="5.89661">
        <ele>1422.91</ele>
        <time>2017-09-23T07:12:32Z</time>
      </trkpt>
      <trkpt lat="45.39051" lon="5.89674">
        <ele>1416.31</ele>
        <time>2017-09-23T07:12:45Z</time>
      </trkpt>
      <trkpt lat="45.39054" lon="5.89687">
        <ele>1417.17</ele>
        <time>2017-09-23T07:12:58Z</time>
      </trkpt>
      <trkpt lat="45.39059" lon="5.89697">
        <ele>1427.77</ele>
        <time>2017-09-23T07:13:30Z</time>
      </trkpt>
      <trkpt lat="45.39061" lon="5.8971">
        <ele>1429.76</ele>
        <time>2017-09-23T07:13:39Z</time>
      </trkpt>
      <trkpt lat="45.39064" lon="5.89723">
        <ele>1434.48</ele>
        <time>2017-09-23T07:13:49Z</time>
      </trkpt>
      <trkpt lat="45.39069" lon="5.89733">
        <ele>1433.79</ele>
        <time>2017-09-23T07:13:59Z</time>
      </trkpt>
      <trkpt lat="45.39071" lon="5.89747">
        <ele>1435.26</ele>
        <time>2017-09-23T07:14:18Z</time>
      </trkpt>
      <trkpt lat="45.39075" lon="5.89758">
        <ele>1441.58</ele>
        <time>2017-09-23T07:14:50Z</time>
      </trkpt>
      <trkpt lat="45.39078" lon="5.89771">
        <ele>1455.54</ele>
        <time>2017-09-23T07:15:17Z</time>
      </trkpt>
      <trkpt lat="45.39077" lon="5.89785">
        <ele>1454.75</ele>
        <time>2017-09-23T07:15:32Z</time>
      </trkpt>
      <trkpt lat="45.39076" lon="5.89798">
        <ele>1452.88</ele>
        <time>2017-09-23T07:15:55Z</time>
      </trkpt>
      <trkpt lat="45.39071" lon="5.89809">
        <ele>1458.51</ele>
        <time>2017-09-23T07:16:22Z</time>
      </trkpt>
      <trkpt lat="45.39073" lon="5.89822">
        <ele>1467.81</ele>
        <time>2017-09-23T07:16:44Z</time>
      </trkpt>
      <trkpt lat="45.39074" lon="5.89835">
        <ele>1471.14</ele>
        <time>2017-09-23T07:16:53Z</time>
      </trkpt>
      <trkpt lat="45.39065" lon="5.8984">
        <ele>1476.06</ele>
        <time>2017-09-23T07:17:19Z</time>
      </trkpt>
      <trkpt lat="45.3906" lon="5.89851">
        <ele>1478.99</ele>
        <time>2017-09-23T07:17:33Z</time>
      </trkpt>
      <trkpt lat="45.39057" lon="5.89864">
        <ele>1477.86</ele>
        <time>2017-09-23T07:17:43Z</time>
      </trkpt>
      <trkpt lat="45.39059" lon="5.89876">
        <ele>1474.89</ele>
        <time>2017-09-23T07:17:57Z</time>
      </trkpt>
      <trkpt lat="45.39063" lon="5.89888">
        <ele>1471.79</ele>
        <time>2017-09-23T07:18:07Z</time>
      </trkpt>
      <trkpt lat="45.39064" lon="5.89902">
        <ele>1473.49</ele>
        <time>2017-09-23T07:18:32Z</time>
      </trkpt>
      <trkpt lat="45.39073" lon="5.89904">
        <ele>1481.97</ele>
        <time>2017-09-23T07:18:52Z</time>
      </trkpt>
      <trkpt lat="45.39082" lon="5.89905">
        <ele>1488.88</ele>
        <time>2017-09-23T07:19:24Z</time>
      </trkpt>
      <trkpt lat="45.39086" lon="5.89917">
        <ele>1493.59</ele>
        <time>2017-09-23T07:19:45Z</time>
      </trkpt>
      <trkpt lat="45.39092" lon="5.89927">
        <ele>1497.86</ele>
        <time>2017-09-23T07:19:58Z</time>
      </trkpt>
      <trkpt lat="45.391" lon="5.89933">
        <ele>1501.79</ele>
        <time>2017-09-23T07:20:11Z</time>
      </trkpt>
      <trkpt lat="45.3911" lon="5.8993">
        <ele>1503.48</ele>
        <time>2017-09-23T07:20:21Z</time>
      </trkpt>
      <trkpt lat="45.39119" lon="5.89927">
        <ele>1506.87</ele>
        <time>2017-09-23T07:20:34Z</time>
      </trkpt>
      <trkpt lat="45.39129" lon="5.89927">
        <ele>1507.96</ele>
        <time>2017-09-23T07:20:55Z</time>
      </trkpt>
      <trkpt lat="45.39138" lon="5.89925">
        <ele>1508.82</ele>
        <time>2017-09-23T07:21:09Z</time>
      </trkpt>
      <trkpt lat="45.39147" lon="5.89923">
        <ele>1508.81</ele>
        <time>2017-09-23T07:21:22Z</time>
      </trkpt>
      <trkpt lat="45.39156" lon="5.89922">
        <ele>1510.01</ele>
        <time>2017-09-23T07:21:36Z</time>
      </trkpt>
      <trkpt lat="45.39165" lon="5.89922">
        <ele>1514.19</ele>
        <time>2017-09-23T07:21:58Z</time>
      </trkpt>
      <trkpt lat="45.39174" lon="5.89918">
        <ele>1521.21</ele>
        <time>2017-09-23T07:22:32Z</time>
      </trkpt>
      <trkpt lat="45.39176" lon="5.89931">
        <ele>1522.04</ele>
        <time>2017-09-23T07:25:22Z</time>
      </trkpt>
      <trkpt lat="45.39176" lon="5.89944">
        <ele>1522.91</ele>
        <time>2017-09-23T07:25:35Z</time>
      </trkpt>
      <trkpt lat="45.39179" lon="5.89957">
        <ele>1526.87</ele>
        <time>2017-09-23T07:25:55Z</time>
      </trkpt>
      <trkpt lat="45.3918" lon="5.8997">
        <ele>1533.69</ele>
        <time>2017-09-23T07:26:13Z</time>
      </trkpt>
      <trkpt lat="45.39185" lon="5.89981">
        <ele>1537.49</ele>
        <time>2017-09-23T07:26:32Z</time>
      </trkpt>
      <trkpt lat="45.39194" lon="5.89981">
        <ele>1539.07</ele>
        <time>2017-09-23T07:26:44Z</time>
      </trkpt>
      <trkpt lat="45.39196" lon="5.89994">
        <ele>1547.18</ele>
        <time>2017-09-23T07:27:10Z</time>
      </trkpt>
      <trkpt lat="45.39193" lon="5.90006">
        <ele>1546.59</ele>
        <time>2017-09-23T07:27:25Z</time>
      </trkpt>
      <trkpt lat="45.3919" lon="5.90019">
        <ele>1552.9</ele>
        <time>2017-09-23T07:27:44Z</time>
      </trkpt>
      <trkpt lat="45.39187" lon="5.90031">
        <ele>1553.59</ele>
        <time>2017-09-23T07:28:02Z</time>
      </trkpt>
      <trkpt lat="45.3919" lon="5.90044">
        <ele>1553.88</ele>
        <time>2017-09-23T07:28:18Z</time>
      </trkpt>
      <trkpt lat="45.39192" lon="5.90057">
        <ele>1561.7</ele>
        <time>2017-09-23T07:28:41Z</time>
      </trkpt>
      <trkpt lat="45.39194" lon="5.9007">
        <ele>1568.35</ele>
        <time>2017-09-23T07:29:01Z</time>
      </trkpt>
      <trkpt lat="45.39192" lon="5.90083">
        <ele>1572.58</ele>
        <time>2017-09-23T07:29:16Z</time>
      </trkpt>
      <trkpt lat="45.39198" lon="5.90094">
        <ele>1573.48</ele>
        <time>2017-09-23T07:29:34Z</time>
      </trkpt>
      <trkpt lat="45.39197" lon="5.90107">
        <ele>1574.59</ele>
        <time>2017-09-23T07:29:49Z</time>
      </trkpt>
      <trkpt lat="45.39193" lon="5.9012">
        <ele>1578.9</ele>
        <time>2017-09-23T07:30:03Z</time>
      </trkpt>
      <trkpt lat="45.3919" lon="5.90132">
        <ele>1580.79</ele>
        <time>2017-09-23T07:30:17Z</time>
      </trkpt>
      <trkpt lat="45.39187" lon="5.90145">
        <ele>1584.04</ele>
        <time>2017-09-23T07:30:31Z</time>
      </trkpt>
      <trkpt lat="45.39181" lon="5.90155">
        <ele>1586.27</ele>
        <time>2017-09-23T07:31:32Z</time>
      </trkpt>
      <trkpt lat="45.39177" lon="5.90167">
        <ele>1587.79</ele>
        <time>2017-09-23T07:31:44Z</time>
      </trkpt>
      <trkpt lat="45.39173" lon="5.90179">
        <ele>1590.87</ele>
        <time>2017-09-23T07:31:57Z</time>
      </trkpt>
      <trkpt lat="45.39168" lon="5.90191">
        <ele>1592.85</ele>
        <time>2017-09-23T07:32:12Z</time>
      </trkpt>
      <trkpt lat="45.39164" lon="5.90203">
        <ele>1595.57</ele>
        <time>2017-09-23T07:32:26Z</time>
      </trkpt>
      <trkpt lat="45.39163" lon="5.90216">
        <ele>1598.58</ele>
        <time>2017-09-23T07:32:40Z</time>
      </trkpt>
      <trkpt lat="45.39159" lon="5.90228">
        <ele>1599.88</ele>
        <time>2017-09-23T07:32:55Z</time>
      </trkpt>
      <trkpt lat="45.39154" lon="5.90238">
        <ele>1604.85</ele>
        <time>2017-09-23T07:33:11Z</time>
      </trkpt>
      <trkpt lat="45.39149" lon="5.90249">
        <ele>1608.9</ele>
        <time>2017-09-23T07:33:26Z</time>
      </trkpt>
      <trkpt lat="45.39145" lon="5.90261">
        <ele>1610.88</ele>
        <time>2017-09-23T07:33:38Z</time>
      </trkpt>
      <trkpt lat="45.3914" lon="5.90272">
        <ele>1612.84</ele>
        <time>2017-09-23T07:33:50Z</time>
      </trkpt>
      <trkpt lat="45.39138" lon="5.90285">
        <ele>1614.15</ele>
        <time>2017-09-23T07:34:05Z</time>
      </trkpt>
      <trkpt lat="45.39134" lon="5.90297">
        <ele>1616.6</ele>
        <time>2017-09-23T07:34:19Z</time>
      </trkpt>
      <trkpt lat="45.3913" lon="5.90309">
        <ele>1621.49</ele>
        <time>2017-09-23T07:34:32Z</time>
      </trkpt>
      <trkpt lat="45.39127" lon="5.90321">
        <ele>1625.55</ele>
        <time>2017-09-23T07:34:49Z</time>
      </trkpt>
      <trkpt lat="45.39124" lon="5.90333">
        <ele>1627.09</ele>
        <time>2017-09-23T07:35:01Z</time>
      </trkpt>
      <trkpt lat="45.39118" lon="5.90344">
        <ele>1630.57</ele>
        <time>2017-09-23T07:35:16Z</time>
      </trkpt>
      <trkpt lat="45.39113" lon="5.90355">
        <ele>1630.81</ele>
        <time>2017-09-23T07:35:28Z</time>
      </trkpt>
      <trkpt lat="45.39107" lon="5.90366">
        <ele>1631.9</ele>
        <time>2017-09-23T07:35:40Z</time>
      </trkpt>
      <trkpt lat="45.39103" lon="5.90378">
        <ele>1635.75</ele>
        <time>2017-09-23T07:35:53Z</time>
      </trkpt>
      <trkpt lat="45.39099" lon="5.90389">
        <ele>1638.79</ele>
        <time>2017-09-23T07:36:07Z</time>
      </trkpt>
      <trkpt lat="45.39094" lon="5.90401">
        <ele>1640.66</ele>
        <time>2017-09-23T07:36:19Z</time>
      </trkpt>
      <trkpt lat="45.3909" lon="5.90412">
        <ele>1644.85</ele>
        <time>2017-09-23T07:36:32Z</time>
      </trkpt>
      <trkpt lat="45.39086" lon="5.90425">
        <ele>1648.78</ele>
        <time>2017-09-23T07:36:47Z</time>
      </trkpt>
      <trkpt lat="45.39082" lon="5.90436">
        <ele>1648.17</ele>
        <time>2017-09-23T07:37:00Z</time>
      </trkpt>
      <trkpt lat="45.39077" lon="5.90447">
        <ele>1652.78</ele>
        <time>2017-09-23T07:37:16Z</time>
      </trkpt>
      <trkpt lat="45.39071" lon="5.90459">
        <ele>1653.88</ele>
        <time>2017-09-23T07:37:30Z</time>
      </trkpt>
      <trkpt lat="45.39068" lon="5.90471">
        <ele>1654.89</ele>
        <time>2017-09-23T07:37:43Z</time>
      </trkpt>
      <trkpt lat="45.39065" lon="5.90484">
        <ele>1657.79</ele>
        <time>2017-09-23T07:37:57Z</time>
      </trkpt>
      <trkpt lat="45.39062" lon="5.90496">
        <ele>1657.58</ele>
        <time>2017-09-23T07:38:10Z</time>
      </trkpt>
      <trkpt lat="45.39061" lon="5.90509">
        <ele>1659.56</ele>
        <time>2017-09-23T07:38:23Z</time>
      </trkpt>
      <trkpt lat="45.39062" lon="5.90523">
        <ele>1663.79</ele>
        <time>2017-09-23T07:38:38Z</time>
      </trkpt>
      <trkpt lat="45.3906" lon="5.90536">
        <ele>1666.52</ele>
        <time>2017-09-23T07:38:53Z</time>
      </trkpt>
      <trkpt lat="45.39057" lon="5.90548">
        <ele>1670.57</ele>
        <time>2017-09-23T07:39:08Z</time>
      </trkpt>
      <trkpt lat="45.39056" lon="5.90561">
        <ele>1671.88</ele>
        <time>2017-09-23T07:39:22Z</time>
      </trkpt>
      <trkpt lat="45.39053" lon="5.90574">
        <ele>1674.88</ele>
        <time>2017-09-23T07:39:39Z</time>
      </trkpt>
      <trkpt lat="45.39052" lon="5.90587">
        <ele>1675.76</ele>
        <time>2017-09-23T07:39:54Z</time>
      </trkpt>
      <trkpt lat="45.39051" lon="5.906">
        <ele>1680.88</ele>
        <time>2017-09-23T07:40:10Z</time>
      </trkpt>
      <trkpt lat="45.39047" lon="5.90612">
        <ele>1686.84</ele>
        <time>2017-09-23T07:40:26Z</time>
      </trkpt>
      <trkpt lat="45.39046" lon="5.90625">
        <ele>1689.49</ele>
        <time>2017-09-23T07:40:44Z</time>
      </trkpt>
      <trkpt lat="45.39045" lon="5.90639">
        <ele>1689.9</ele>
        <time>2017-09-23T07:41:00Z</time>
      </trkpt>
      <trkpt lat="45.39041" lon="5.9065">
        <ele>1697.39</ele>
        <time>2017-09-23T07:41:16Z</time>
      </trkpt>
      <trkpt lat="45.39043" lon="5.90663">
        <ele>1697.79</ele>
        <time>2017-09-23T07:41:36Z</time>
      </trkpt>
      <trkpt lat="45.39044" lon="5.90676">
        <ele>1701.76</ele>
        <time>2017-09-23T07:41:53Z</time>
      </trkpt>
      <trkpt lat="45.39044" lon="5.90689">
        <ele>1704.57</ele>
        <time>2017-09-23T07:42:11Z</time>
      </trkpt>
      <trkpt lat="45.39042" lon="5.90702">
        <ele>1707.87</ele>
        <time>2017-09-23T07:42:30Z</time>
      </trkpt>
      <trkpt lat="45.39039" lon="5.90714">
        <ele>1712</ele>
        <time>2017-09-23T07:42:46Z</time>
      </trkpt>
      <trkpt lat="45.39041" lon="5.90727">
        <ele>1714.39</ele>
        <time>2017-09-23T07:43:06Z</time>
      </trkpt>
      <trkpt lat="45.39042" lon="5.9074">
        <ele>1720.74</ele>
        <time>2017-09-23T07:44:13Z</time>
      </trkpt>
      <trkpt lat="45.39041" lon="5.90754">
        <ele>1724.88</ele>
        <time>2017-09-23T07:44:30Z</time>
      </trkpt>
      <trkpt lat="45.39041" lon="5.90766">
        <ele>1728.47</ele>
        <time>2017-09-23T07:44:47Z</time>
      </trkpt>
      <trkpt lat="45.39043" lon="5.90779">
        <ele>1736.46</ele>
        <time>2017-09-23T07:45:02Z</time>
      </trkpt>
      <trkpt lat="45.39044" lon="5.90793">
        <ele>1738.78</ele>
        <time>2017-09-23T07:45:20Z</time>
      </trkpt>
      <trkpt lat="45.39043" lon="5.90806">
        <ele>1741.81</ele>
        <time>2017-09-23T07:45:41Z</time>
      </trkpt>
      <trkpt lat="45.39042" lon="5.90819">
        <ele>1745.88</ele>
        <time>2017-09-23T07:45:58Z</time>
      </trkpt>
      <trkpt lat="45.3904" lon="5.90832">
        <ele>1749.72</ele>
        <time>2017-09-23T07:46:14Z</time>
      </trkpt>
      <trkpt lat="45.39039" lon="5.90845">
        <ele>1752.18</ele>
        <time>2017-09-23T07:46:32Z</time>
      </trkpt>
      <trkpt lat="45.3904" lon="5.90858">
        <ele>1752.88</ele>
        <time>2017-09-23T07:46:50Z</time>
      </trkpt>
      <trkpt lat="45.3904" lon="5.90871">
        <ele>1755.6</ele>
        <time>2017-09-23T07:47:07Z</time>
      </trkpt>
      <trkpt lat="45.39043" lon="5.90884">
        <ele>1759.18</ele>
        <time>2017-09-23T07:47:57Z</time>
      </trkpt>
      <trkpt lat="45.39044" lon="5.90898">
        <ele>1760.76</ele>
        <time>2017-09-23T07:48:09Z</time>
      </trkpt>
      <trkpt lat="45.39046" lon="5.90911">
        <ele>1761.09</ele>
        <time>2017-09-23T07:48:25Z</time>
      </trkpt>
      <trkpt lat="45.39043" lon="5.90924">
        <ele>1766.87</ele>
        <time>2017-09-23T07:48:41Z</time>
      </trkpt>
      <trkpt lat="45.39042" lon="5.90937">
        <ele>1770.88</ele>
        <time>2017-09-23T07:49:01Z</time>
      </trkpt>
      <trkpt lat="45.39043" lon="5.9095">
        <ele>1773.27</ele>
        <time>2017-09-23T07:49:18Z</time>
      </trkpt>
      <trkpt lat="45.39047" lon="5.90962">
        <ele>1778.79</ele>
        <time>2017-09-23T07:49:34Z</time>
      </trkpt>
      <trkpt lat="45.39044" lon="5.90974">
        <ele>1783.74</ele>
        <time>2017-09-23T07:49:54Z</time>
      </trkpt>
      <trkpt lat="45.3904" lon="5.90985">
        <ele>1790.88</ele>
        <time>2017-09-23T07:51:05Z</time>
      </trkpt>
      <trkpt lat="45.39038" lon="5.90998">
        <ele>1792.57</ele>
        <time>2017-09-23T07:51:28Z</time>
      </trkpt>
      <trkpt lat="45.39028" lon="5.91">
        <ele>1799.08</ele>
        <time>2017-09-23T07:56:18Z</time>
      </trkpt>
      <trkpt lat="45.39019" lon="5.91003">
        <ele>1802.49</ele>
        <time>2017-09-23T07:56:30Z</time>
      </trkpt>
      <trkpt lat="45.3901" lon="5.91006">
        <ele>1806.55</ele>
        <time>2017-09-23T07:56:48Z</time>
      </trkpt>
      <trkpt lat="45.39001" lon="5.91007">
        <ele>1807.96</ele>
        <time>2017-09-23T07:57:06Z</time>
      </trkpt>
      <trkpt lat="45.38992" lon="5.91009">
        <ele>1810.85</ele>
        <time>2017-09-23T07:58:06Z</time>
      </trkpt>
      <trkpt lat="45.38983" lon="5.91009">
        <ele>1810.87</ele>
        <time>2017-09-23T07:58:22Z</time>
      </trkpt>
      <trkpt lat="45.38975" lon="5.91003">
        <ele>1812.27</ele>
        <time>2017-09-23T07:59:12Z</time>
      </trkpt>
      <trkpt lat="45.38968" lon="5.90994">
        <ele>1810.85</ele>
        <time>2017-09-23T07:59:28Z</time>
      </trkpt>
      <trkpt lat="45.38959" lon="5.90992">
        <ele>1808.88</ele>
        <time>2017-09-23T07:59:43Z</time>
      </trkpt>
      <trkpt lat="45.3895" lon="5.90993">
        <ele>1809.83</ele>
        <time>2017-09-23T07:59:54Z</time>
      </trkpt>
      <trkpt lat="45.38941" lon="5.90999">
        <ele>1813.87</ele>
        <time>2017-09-23T08:03:22Z</time>
      </trkpt>
      <trkpt lat="45.38933" lon="5.90992">
        <ele>1812.2</ele>
        <time>2017-09-23T08:03:50Z</time>
      </trkpt>
      <trkpt lat="45.38927" lon="5.90981">
        <ele>1811.19</ele>
        <time>2017-09-23T08:04:37Z</time>
      </trkpt>
      <trkpt lat="45.38919" lon="5.90975">
        <ele>1811.87</ele>
        <time>2017-09-23T08:04:48Z</time>
      </trkpt>
      <trkpt lat="45.3891" lon="5.9097">
        <ele>1806.94</ele>
        <time>2017-09-23T08:05:14Z</time>
      </trkpt>
      <trkpt lat="45.38901" lon="5.90973">
        <ele>1806.47</ele>
        <time>2017-09-23T08:05:51Z</time>
      </trkpt>
      <trkpt lat="45.38892" lon="5.90974">
        <ele>1807.57</ele>
        <time>2017-09-23T08:06:00Z</time>
      </trkpt>
      <trkpt lat="45.38883" lon="5.90975">
        <ele>1802.85</ele>
        <time>2017-09-23T08:06:13Z</time>
      </trkpt>
      <trkpt lat="45.38877" lon="5.90964">
        <ele>1806</ele>
        <time>2017-09-23T08:08:17Z</time>
      </trkpt>
      <trkpt lat="45.38869" lon="5.90957">
        <ele>1807.89</ele>
        <time>2017-09-23T08:08:43Z</time>
      </trkpt>
      <trkpt lat="45.38862" lon="5.90949">
        <ele>1799.8</ele>
        <time>2017-09-23T08:09:12Z</time>
      </trkpt>
      <trkpt lat="45.38853" lon="5.90948">
        <ele>1797.87</ele>
        <time>2017-09-23T08:09:29Z</time>
      </trkpt>
      <trkpt lat="45.38844" lon="5.90946">
        <ele>1799.85</ele>
        <time>2017-09-23T08:09:37Z</time>
      </trkpt>
      <trkpt lat="45.38835" lon="5.90945">
        <ele>1800.59</ele>
        <time>2017-09-23T08:09:46Z</time>
      </trkpt>
      <trkpt lat="45.38826" lon="5.9094">
        <ele>1799.97</ele>
        <time>2017-09-23T08:12:11Z</time>
      </trkpt>
      <trkpt lat="45.38827" lon="5.90927">
        <ele>1802.12</ele>
        <time>2017-09-23T08:12:25Z</time>
      </trkpt>
      <trkpt lat="45.38824" lon="5.90915">
        <ele>1801.67</ele>
        <time>2017-09-23T08:12:36Z</time>
      </trkpt>
      <trkpt lat="45.38814" lon="5.90914">
        <ele>1797.61</ele>
        <time>2017-09-23T08:12:46Z</time>
      </trkpt>
      <trkpt lat="45.38809" lon="5.90903">
        <ele>1792.91</ele>
        <time>2017-09-23T08:13:33Z</time>
      </trkpt>
      <trkpt lat="45.38801" lon="5.90895">
        <ele>1790.89</ele>
        <time>2017-09-23T08:13:42Z</time>
      </trkpt>
      <trkpt lat="45.38792" lon="5.90891">
        <ele>1790.6</ele>
        <time>2017-09-23T08:14:13Z</time>
      </trkpt>
      <trkpt lat="45.38783" lon="5.90884">
        <ele>1793.49</ele>
        <time>2017-09-23T08:15:46Z</time>
      </trkpt>
      <trkpt lat="45.38773" lon="5.90882">
        <ele>1791.79</ele>
        <time>2017-09-23T08:15:56Z</time>
      </trkpt>
      <trkpt lat="45.38765" lon="5.90876">
        <ele>1791.89</ele>
        <time>2017-09-23T08:16:04Z</time>
      </trkpt>
      <trkpt lat="45.38757" lon="5.90869">
        <ele>1795.49</ele>
        <time>2017-09-23T08:16:13Z</time>
      </trkpt>
      <trkpt lat="45.38748" lon="5.90872">
        <ele>1796.47</ele>
        <time>2017-09-23T08:16:30Z</time>
      </trkpt>
      <trkpt lat="45.38738" lon="5.90871">
        <ele>1792.97</ele>
        <time>2017-09-23T08:16:39Z</time>
      </trkpt>
      <trkpt lat="45.38729" lon="5.90869">
        <ele>1794.17</ele>
        <time>2017-09-23T08:16:49Z</time>
      </trkpt>
      <trkpt lat="45.3872" lon="5.90873">
        <ele>1791.91</ele>
        <time>2017-09-23T08:17:17Z</time>
      </trkpt>
      <trkpt lat="45.38712" lon="5.90878">
        <ele>1795.67</ele>
        <time>2017-09-23T08:18:16Z</time>
      </trkpt>
      <trkpt lat="45.38701" lon="5.90875">
        <ele>1796.67</ele>
        <time>2017-09-23T08:18:36Z</time>
      </trkpt>
      <trkpt lat="45.38693" lon="5.90878">
        <ele>1801.88</ele>
        <time>2017-09-23T08:19:30Z</time>
      </trkpt>
      <trkpt lat="45.38684" lon="5.90874">
        <ele>1802.8</ele>
        <time>2017-09-23T08:19:56Z</time>
      </trkpt>
      <trkpt lat="45.38676" lon="5.90866">
        <ele>1801.89</ele>
        <time>2017-09-23T08:20:16Z</time>
      </trkpt>
      <trkpt lat="45.38672" lon="5.90855">
        <ele>1799.19</ele>
        <time>2017-09-23T08:20:49Z</time>
      </trkpt>
      <trkpt lat="45.38665" lon="5.90846">
        <ele>1794.82</ele>
        <time>2017-09-23T08:21:10Z</time>
      </trkpt>
      <trkpt lat="45.38657" lon="5.90838">
        <ele>1794.97</ele>
        <time>2017-09-23T08:21:23Z</time>
      </trkpt>
      <trkpt lat="45.38648" lon="5.9083">
        <ele>1790.93</ele>
        <time>2017-09-23T08:21:35Z</time>
      </trkpt>
      <trkpt lat="45.38639" lon="5.90825">
        <ele>1791.79</ele>
        <time>2017-09-23T08:21:45Z</time>
      </trkpt>
      <trkpt lat="45.3863" lon="5.90825">
        <ele>1792.09</ele>
        <time>2017-09-23T08:21:56Z</time>
      </trkpt>
      <trkpt lat="45.38622" lon="5.90818">
        <ele>1790.7</ele>
        <time>2017-09-23T08:23:03Z</time>
      </trkpt>
      <trkpt lat="45.38613" lon="5.9082">
        <ele>1789.9</ele>
        <time>2017-09-23T08:23:15Z</time>
      </trkpt>
      <trkpt lat="45.38603" lon="5.90819">
        <ele>1790.78</ele>
        <time>2017-09-23T08:23:24Z</time>
      </trkpt>
      <trkpt lat="45.38594" lon="5.90818">
        <ele>1793.46</ele>
        <time>2017-09-23T08:23:54Z</time>
      </trkpt>
      <trkpt lat="45.38585" lon="5.90823">
        <ele>1794.95</ele>
        <time>2017-09-23T08:24:02Z</time>
      </trkpt>
      <trkpt lat="45.38576" lon="5.90825">
        <ele>1796.14</ele>
        <time>2017-09-23T08:24:13Z</time>
      </trkpt>
      <trkpt lat="45.38566" lon="5.90822">
        <ele>1796.91</ele>
        <time>2017-09-23T08:24:27Z</time>
      </trkpt>
      <trkpt lat="45.38556" lon="5.9082">
        <ele>1796.89</ele>
        <time>2017-09-23T08:24:36Z</time>
      </trkpt>
      <trkpt lat="45.38549" lon="5.90812">
        <ele>1793.88</ele>
        <time>2017-09-23T08:24:56Z</time>
      </trkpt>
      <trkpt lat="45.38539" lon="5.90809">
        <ele>1792.6</ele>
        <time>2017-09-23T08:25:07Z</time>
      </trkpt>
      <trkpt lat="45.3853" lon="5.9081">
        <ele>1794.57</ele>
        <time>2017-09-23T08:25:15Z</time>
      </trkpt>
      <trkpt lat="45.38521" lon="5.90813">
        <ele>1799.46</ele>
        <time>2017-09-23T08:25:31Z</time>
      </trkpt>
      <trkpt lat="45.38519" lon="5.90827">
        <ele>1797.95</ele>
        <time>2017-09-23T08:25:43Z</time>
      </trkpt>
      <trkpt lat="45.38511" lon="5.90823">
        <ele>1799.85</ele>
        <time>2017-09-23T08:27:03Z</time>
      </trkpt>
      <trkpt lat="45.38503" lon="5.90829">
        <ele>1805.88</ele>
        <time>2017-09-23T08:27:19Z</time>
      </trkpt>
      <trkpt lat="45.38511" lon="5.90836">
        <ele>1797.88</ele>
        <time>2017-09-23T08:28:42Z</time>
      </trkpt>
      <trkpt lat="45.3852" lon="5.90835">
        <ele>1796.81</ele>
        <time>2017-09-23T08:29:18Z</time>
      </trkpt>
      <trkpt lat="45.3853" lon="5.90839">
        <ele>1794.36</ele>
        <time>2017-09-23T08:30:31Z</time>
      </trkpt>
      <trkpt lat="45.38521" lon="5.90834">
        <ele>1791.9</ele>
        <time>2017-09-23T08:32:54Z</time>
      </trkpt>
      <trkpt lat="45.38512" lon="5.90831">
        <ele>1792.18</ele>
        <time>2017-09-23T08:33:22Z</time>
      </trkpt>
      <trkpt lat="45.38504" lon="5.90837">
        <ele>1798.66</ele>
        <time>2017-09-23T08:50:53Z</time>
      </trkpt>
      <trkpt lat="45.38501" lon="5.90825">
        <ele>1796.97</ele>
        <time>2017-09-23T08:52:33Z</time>
      </trkpt>
      <trkpt lat="45.38503" lon="5.90812">
        <ele>1792.91</ele>
        <time>2017-09-23T08:53:22Z</time>
      </trkpt>
      <trkpt lat="45.38504" lon="5.90798">
        <ele>1789.9</ele>
        <time>2017-09-23T08:53:40Z</time>
      </trkpt>
      <trkpt lat="45.38505" lon="5.90785">
        <ele>1784.89</ele>
        <time>2017-09-23T08:53:54Z</time>
      </trkpt>
      <trkpt lat="45.38505" lon="5.90772">
        <ele>1780.97</ele>
        <time>2017-09-23T08:54:11Z</time>
      </trkpt>
      <trkpt lat="45.38508" lon="5.90759">
        <ele>1779.52</ele>
        <time>2017-09-23T08:54:26Z</time>
      </trkpt>
      <trkpt lat="45.38517" lon="5.90756">
        <ele>1776.91</ele>
        <time>2017-09-23T08:55:07Z</time>
      </trkpt>
      <trkpt lat="45.38526" lon="5.90757">
        <ele>1776.59</ele>
        <time>2017-09-23T08:55:17Z</time>
      </trkpt>
      <trkpt lat="45.38536" lon="5.90757">
        <ele>1774.96</ele>
        <time>2017-09-23T08:55:26Z</time>
      </trkpt>
      <trkpt lat="45.38543" lon="5.90766">
        <ele>1774.87</ele>
        <time>2017-09-23T08:55:38Z</time>
      </trkpt>
      <trkpt lat="45.38552" lon="5.90772">
        <ele>1777.55</ele>
        <time>2017-09-23T08:55:52Z</time>
      </trkpt>
      <trkpt lat="45.38561" lon="5.90775">
        <ele>1776.22</ele>
        <time>2017-09-23T08:56:42Z</time>
      </trkpt>
      <trkpt lat="45.3857" lon="5.9078">
        <ele>1778.88</ele>
        <time>2017-09-23T08:56:55Z</time>
      </trkpt>
      <trkpt lat="45.38579" lon="5.90782">
        <ele>1777.91</ele>
        <time>2017-09-23T08:57:07Z</time>
      </trkpt>
      <trkpt lat="45.38588" lon="5.90783">
        <ele>1779.72</ele>
        <time>2017-09-23T08:57:19Z</time>
      </trkpt>
      <trkpt lat="45.38598" lon="5.90785">
        <ele>1779.88</ele>
        <time>2017-09-23T08:57:32Z</time>
      </trkpt>
      <trkpt lat="45.38607" lon="5.90786">
        <ele>1778.97</ele>
        <time>2017-09-23T08:57:42Z</time>
      </trkpt>
      <trkpt lat="45.38616" lon="5.9079">
        <ele>1780.71</ele>
        <time>2017-09-23T08:57:51Z</time>
      </trkpt>
      <trkpt lat="45.38626" lon="5.9079">
        <ele>1779.88</ele>
        <time>2017-09-23T08:58:03Z</time>
      </trkpt>
      <trkpt lat="45.38635" lon="5.90792">
        <ele>1783.18</ele>
        <time>2017-09-23T08:58:17Z</time>
      </trkpt>
      <trkpt lat="45.38645" lon="5.90793">
        <ele>1784.79</ele>
        <time>2017-09-23T08:58:27Z</time>
      </trkpt>
      <trkpt lat="45.38655" lon="5.90794">
        <ele>1781.22</ele>
        <time>2017-09-23T08:58:34Z</time>
      </trkpt>
      <trkpt lat="45.38665" lon="5.90793">
        <ele>1780.68</ele>
        <time>2017-09-23T08:58:58Z</time>
      </trkpt>
      <trkpt lat="45.38674" lon="5.90795">
        <ele>1779.85</ele>
        <time>2017-09-23T08:59:06Z</time>
      </trkpt>
      <trkpt lat="45.38684" lon="5.90795">
        <ele>1777.47</ele>
        <time>2017-09-23T08:59:16Z</time>
      </trkpt>
      <trkpt lat="45.38693" lon="5.90796">
        <ele>1776.8</ele>
        <time>2017-09-23T08:59:32Z</time>
      </trkpt>
      <trkpt lat="45.38702" lon="5.90801">
        <ele>1775.67</ele>
        <time>2017-09-23T08:59:43Z</time>
      </trkpt>
      <trkpt lat="45.3871" lon="5.9081">
        <ele>1775.88</ele>
        <time>2017-09-23T08:59:55Z</time>
      </trkpt>
      <trkpt lat="45.38717" lon="5.90819">
        <ele>1775.8</ele>
        <time>2017-09-23T09:00:06Z</time>
      </trkpt>
      <trkpt lat="45.38725" lon="5.90824">
        <ele>1776.67</ele>
        <time>2017-09-23T09:00:19Z</time>
      </trkpt>
      <trkpt lat="45.38734" lon="5.90821">
        <ele>1774.87</ele>
        <time>2017-09-23T09:00:31Z</time>
      </trkpt>
      <trkpt lat="45.38744" lon="5.90821">
        <ele>1772.67</ele>
        <time>2017-09-23T09:00:43Z</time>
      </trkpt>
      <trkpt lat="45.38753" lon="5.90827">
        <ele>1773.88</ele>
        <time>2017-09-23T09:00:58Z</time>
      </trkpt>
      <trkpt lat="45.38761" lon="5.90835">
        <ele>1774.9</ele>
        <time>2017-09-23T09:01:12Z</time>
      </trkpt>
      <trkpt lat="45.38769" lon="5.9084">
        <ele>1774.67</ele>
        <time>2017-09-23T09:01:20Z</time>
      </trkpt>
      <trkpt lat="45.38779" lon="5.90843">
        <ele>1772.89</ele>
        <time>2017-09-23T09:01:29Z</time>
      </trkpt>
      <trkpt lat="45.38789" lon="5.90843">
        <ele>1775.49</ele>
        <time>2017-09-23T09:01:40Z</time>
      </trkpt>
      <trkpt lat="45.38798" lon="5.9084">
        <ele>1772.49</ele>
        <time>2017-09-23T09:01:47Z</time>
      </trkpt>
      <trkpt lat="45.38807" lon="5.90841">
        <ele>1770.96</ele>
        <time>2017-09-23T09:02:10Z</time>
      </trkpt>
      <trkpt lat="45.38817" lon="5.90844">
        <ele>1771.3</ele>
        <time>2017-09-23T09:02:20Z</time>
      </trkpt>
      <trkpt lat="45.38826" lon="5.90841">
        <ele>1768.48</ele>
        <time>2017-09-23T09:02:30Z</time>
      </trkpt>
      <trkpt lat="45.38836" lon="5.90838">
        <ele>1768.18</ele>
        <time>2017-09-23T09:02:39Z</time>
      </trkpt>
      <trkpt lat="45.38845" lon="5.90836">
        <ele>1769.24</ele>
        <time>2017-09-23T09:03:06Z</time>
      </trkpt>
      <trkpt lat="45.38854" lon="5.90841">
        <ele>1767.88</ele>
        <time>2017-09-23T09:03:14Z</time>
      </trkpt>
      <trkpt lat="45.38863" lon="5.90847">
        <ele>1763.18</ele>
        <time>2017-09-23T09:03:23Z</time>
      </trkpt>
      <trkpt lat="45.38872" lon="5.90852">
        <ele>1761.15</ele>
        <time>2017-09-23T09:03:31Z</time>
      </trkpt>
      <trkpt lat="45.38881" lon="5.90852">
        <ele>1759.13</ele>
        <time>2017-09-23T09:03:39Z</time>
      </trkpt>
      <trkpt lat="45.3889" lon="5.9085">
        <ele>1758.88</ele>
        <time>2017-09-23T09:03:49Z</time>
      </trkpt>
      <trkpt lat="45.38899" lon="5.90853">
        <ele>1759.94</ele>
        <time>2017-09-23T09:04:01Z</time>
      </trkpt>
      <trkpt lat="45.38909" lon="5.90853">
        <ele>1758.36</ele>
        <time>2017-09-23T09:04:15Z</time>
      </trkpt>
      <trkpt lat="45.38918" lon="5.90856">
        <ele>1758.85</ele>
        <time>2017-09-23T09:04:26Z</time>
      </trkpt>
      <trkpt lat="45.38927" lon="5.90853">
        <ele>1762.63</ele>
        <time>2017-09-23T09:04:50Z</time>
      </trkpt>
      <trkpt lat="45.38936" lon="5.90849">
        <ele>1760.96</ele>
        <time>2017-09-23T09:05:08Z</time>
      </trkpt>
      <trkpt lat="45.38945" lon="5.90846">
        <ele>1760.86</ele>
        <time>2017-09-23T09:05:17Z</time>
      </trkpt>
      <trkpt lat="45.38954" lon="5.90847">
        <ele>1760.7</ele>
        <time>2017-09-23T09:05:31Z</time>
      </trkpt>
      <trkpt lat="45.38963" lon="5.9085">
        <ele>1764.93</ele>
        <time>2017-09-23T09:05:42Z</time>
      </trkpt>
      <trkpt lat="45.38973" lon="5.9085">
        <ele>1759.88</ele>
        <time>2017-09-23T09:05:59Z</time>
      </trkpt>
      <trkpt lat="45.38981" lon="5.90854">
        <ele>1759.67</ele>
        <time>2017-09-23T09:06:47Z</time>
      </trkpt>
      <trkpt lat="45.38991" lon="5.90851">
        <ele>1756.88</ele>
        <time>2017-09-23T09:07:11Z</time>
      </trkpt>
      <trkpt lat="45.38999" lon="5.90844">
        <ele>1754.09</ele>
        <time>2017-09-23T09:07:24Z</time>
      </trkpt>
      <trkpt lat="45.39007" lon="5.90839">
        <ele>1752.88</ele>
        <time>2017-09-23T09:07:35Z</time>
      </trkpt>
      <trkpt lat="45.39013" lon="5.90829">
        <ele>1750</ele>
        <time>2017-09-23T09:07:49Z</time>
      </trkpt>
      <trkpt lat="45.39014" lon="5.90816">
        <ele>1746.88</ele>
        <time>2017-09-23T09:08:47Z</time>
      </trkpt>
      <trkpt lat="45.39017" lon="5.90803">
        <ele>1744.57</ele>
        <time>2017-09-23T09:08:59Z</time>
      </trkpt>
      <trkpt lat="45.39017" lon="5.9079">
        <ele>1740.21</ele>
        <time>2017-09-23T09:09:12Z</time>
      </trkpt>
      <trkpt lat="45.39017" lon="5.90777">
        <ele>1735.88</ele>
        <time>2017-09-23T09:09:29Z</time>
      </trkpt>
      <trkpt lat="45.39018" lon="5.90764">
        <ele>1733.79</ele>
        <time>2017-09-23T09:09:44Z</time>
      </trkpt>
      <trkpt lat="45.39019" lon="5.90751">
        <ele>1728</ele>
        <time>2017-09-23T09:09:59Z</time>
      </trkpt>
      <trkpt lat="45.39022" lon="5.90738">
        <ele>1724.97</ele>
        <time>2017-09-23T09:10:13Z</time>
      </trkpt>
      <trkpt lat="45.39024" lon="5.90725">
        <ele>1718.98</ele>
        <time>2017-09-23T09:10:28Z</time>
      </trkpt>
      <trkpt lat="45.39027" lon="5.90712">
        <ele>1717.27</ele>
        <time>2017-09-23T09:10:40Z</time>
      </trkpt>
      <trkpt lat="45.39029" lon="5.90699">
        <ele>1714.16</ele>
        <time>2017-09-23T09:10:54Z</time>
      </trkpt>
      <trkpt lat="45.39032" lon="5.90686">
        <ele>1708.89</ele>
        <time>2017-09-23T09:11:07Z</time>
      </trkpt>
      <trkpt lat="45.39033" lon="5.90673">
        <ele>1706.89</ele>
        <time>2017-09-23T09:11:18Z</time>
      </trkpt>
      <trkpt lat="45.39035" lon="5.9066">
        <ele>1705.18</ele>
        <time>2017-09-23T09:11:32Z</time>
      </trkpt>
      <trkpt lat="45.39037" lon="5.90648">
        <ele>1699.19</ele>
        <time>2017-09-23T09:11:54Z</time>
      </trkpt>
      <trkpt lat="45.39039" lon="5.90634">
        <ele>1694</ele>
        <time>2017-09-23T09:12:09Z</time>
      </trkpt>
      <trkpt lat="45.39041" lon="5.90622">
        <ele>1689.91</ele>
        <time>2017-09-23T09:12:23Z</time>
      </trkpt>
      <trkpt lat="45.39045" lon="5.9061">
        <ele>1686.82</ele>
        <time>2017-09-23T09:12:36Z</time>
      </trkpt>
      <trkpt lat="45.39048" lon="5.90597">
        <ele>1682.3</ele>
        <time>2017-09-23T09:12:48Z</time>
      </trkpt>
      <trkpt lat="45.39049" lon="5.90583">
        <ele>1680.82</ele>
        <time>2017-09-23T09:13:01Z</time>
      </trkpt>
      <trkpt lat="45.39053" lon="5.90571">
        <ele>1679.88</ele>
        <time>2017-09-23T09:13:15Z</time>
      </trkpt>
      <trkpt lat="45.39055" lon="5.90558">
        <ele>1676.85</ele>
        <time>2017-09-23T09:13:35Z</time>
      </trkpt>
      <trkpt lat="45.39058" lon="5.90546">
        <ele>1674.18</ele>
        <time>2017-09-23T09:13:46Z</time>
      </trkpt>
      <trkpt lat="45.39062" lon="5.90534">
        <ele>1671.88</ele>
        <time>2017-09-23T09:14:22Z</time>
      </trkpt>
      <trkpt lat="45.39064" lon="5.90522">
        <ele>1667.91</ele>
        <time>2017-09-23T09:14:32Z</time>
      </trkpt>
      <trkpt lat="45.3907" lon="5.90512">
        <ele>1665.16</ele>
        <time>2017-09-23T09:14:44Z</time>
      </trkpt>
      <trkpt lat="45.39076" lon="5.90502">
        <ele>1661.25</ele>
        <time>2017-09-23T09:14:57Z</time>
      </trkpt>
      <trkpt lat="45.39079" lon="5.90489">
        <ele>1661.9</ele>
        <time>2017-09-23T09:15:08Z</time>
      </trkpt>
      <trkpt lat="45.39083" lon="5.90477">
        <ele>1658.8</ele>
        <time>2017-09-23T09:15:18Z</time>
      </trkpt>
      <trkpt lat="45.39088" lon="5.90465">
        <ele>1656.6</ele>
        <time>2017-09-23T09:15:30Z</time>
      </trkpt>
      <trkpt lat="45.39095" lon="5.90456">
        <ele>1655.88</ele>
        <time>2017-09-23T09:15:41Z</time>
      </trkpt>
      <trkpt lat="45.39099" lon="5.90443">
        <ele>1652.97</ele>
        <time>2017-09-23T09:15:54Z</time>
      </trkpt>
      <trkpt lat="45.39102" lon="5.9043">
        <ele>1653.88</ele>
        <time>2017-09-23T09:16:05Z</time>
      </trkpt>
      <trkpt lat="45.39106" lon="5.90419">
        <ele>1649.27</ele>
        <time>2017-09-23T09:16:18Z</time>
      </trkpt>
      <trkpt lat="45.3911" lon="5.90406">
        <ele>1648.61</ele>
        <time>2017-09-23T09:16:29Z</time>
      </trkpt>
      <trkpt lat="45.39113" lon="5.90394">
        <ele>1647.6</ele>
        <time>2017-09-23T09:16:43Z</time>
      </trkpt>
      <trkpt lat="45.39117" lon="5.90382">
        <ele>1644.27</ele>
        <time>2017-09-23T09:16:52Z</time>
      </trkpt>
      <trkpt lat="45.39119" lon="5.90368">
        <ele>1642</ele>
        <time>2017-09-23T09:17:01Z</time>
      </trkpt>
      <trkpt lat="45.39121" lon="5.90355">
        <ele>1640.1</ele>
        <time>2017-09-23T09:17:10Z</time>
      </trkpt>
      <trkpt lat="45.39126" lon="5.90344">
        <ele>1637.91</ele>
        <time>2017-09-23T09:17:21Z</time>
      </trkpt>
      <trkpt lat="45.39133" lon="5.90336">
        <ele>1634.89</ele>
        <time>2017-09-23T09:17:32Z</time>
      </trkpt>
      <trkpt lat="45.39137" lon="5.90323">
        <ele>1630.21</ele>
        <time>2017-09-23T09:17:42Z</time>
      </trkpt>
      <trkpt lat="45.3914" lon="5.90311">
        <ele>1628.8</ele>
        <time>2017-09-23T09:17:51Z</time>
      </trkpt>
      <trkpt lat="45.39148" lon="5.90304">
        <ele>1624.97</ele>
        <time>2017-09-23T09:18:01Z</time>
      </trkpt>
      <trkpt lat="45.39157" lon="5.90305">
        <ele>1625.67</ele>
        <time>2017-09-23T09:18:10Z</time>
      </trkpt>
      <trkpt lat="45.39162" lon="5.90294">
        <ele>1622.21</ele>
        <time>2017-09-23T09:18:20Z</time>
      </trkpt>
      <trkpt lat="45.39168" lon="5.90283">
        <ele>1619.97</ele>
        <time>2017-09-23T09:18:30Z</time>
      </trkpt>
      <trkpt lat="45.39174" lon="5.90273">
        <ele>1616.18</ele>
        <time>2017-09-23T09:18:48Z</time>
      </trkpt>
      <trkpt lat="45.39178" lon="5.90261">
        <ele>1613</ele>
        <time>2017-09-23T09:18:58Z</time>
      </trkpt>
      <trkpt lat="45.39184" lon="5.90251">
        <ele>1612.7</ele>
        <time>2017-09-23T09:19:24Z</time>
      </trkpt>
      <trkpt lat="45.39188" lon="5.90238">
        <ele>1609.19</ele>
        <time>2017-09-23T09:19:33Z</time>
      </trkpt>
      <trkpt lat="45.39193" lon="5.90227">
        <ele>1606.97</ele>
        <time>2017-09-23T09:19:45Z</time>
      </trkpt>
      <trkpt lat="45.39197" lon="5.90216">
        <ele>1603.28</ele>
        <time>2017-09-23T09:19:56Z</time>
      </trkpt>
      <trkpt lat="45.39202" lon="5.90204">
        <ele>1600.16</ele>
        <time>2017-09-23T09:20:06Z</time>
      </trkpt>
      <trkpt lat="45.39207" lon="5.90192">
        <ele>1597.21</ele>
        <time>2017-09-23T09:20:18Z</time>
      </trkpt>
      <trkpt lat="45.39214" lon="5.90183">
        <ele>1596.79</ele>
        <time>2017-09-23T09:20:29Z</time>
      </trkpt>
      <trkpt lat="45.3922" lon="5.90172">
        <ele>1596.18</ele>
        <time>2017-09-23T09:20:40Z</time>
      </trkpt>
      <trkpt lat="45.39223" lon="5.90158">
        <ele>1592.88</ele>
        <time>2017-09-23T09:20:51Z</time>
      </trkpt>
      <trkpt lat="45.39223" lon="5.90145">
        <ele>1589.97</ele>
        <time>2017-09-23T09:21:01Z</time>
      </trkpt>
      <trkpt lat="45.39224" lon="5.90131">
        <ele>1586.21</ele>
        <time>2017-09-23T09:21:35Z</time>
      </trkpt>
      <trkpt lat="45.39228" lon="5.90119">
        <ele>1584.95</ele>
        <time>2017-09-23T09:21:44Z</time>
      </trkpt>
      <trkpt lat="45.39233" lon="5.90108">
        <ele>1582.64</ele>
        <time>2017-09-23T09:21:54Z</time>
      </trkpt>
      <trkpt lat="45.39237" lon="5.90096">
        <ele>1580.91</ele>
        <time>2017-09-23T09:22:05Z</time>
      </trkpt>
      <trkpt lat="45.39243" lon="5.90085">
        <ele>1579.49</ele>
        <time>2017-09-23T09:22:18Z</time>
      </trkpt>
      <trkpt lat="45.39248" lon="5.90074">
        <ele>1578.89</ele>
        <time>2017-09-23T09:22:30Z</time>
      </trkpt>
      <trkpt lat="45.39253" lon="5.90062">
        <ele>1574.91</ele>
        <time>2017-09-23T09:22:39Z</time>
      </trkpt>
      <trkpt lat="45.39259" lon="5.90052">
        <ele>1569.18</ele>
        <time>2017-09-23T09:22:51Z</time>
      </trkpt>
      <trkpt lat="45.39267" lon="5.90045">
        <ele>1567.88</ele>
        <time>2017-09-23T09:23:15Z</time>
      </trkpt>
      <trkpt lat="45.39268" lon="5.90059">
        <ele>1560.97</ele>
        <time>2017-09-23T09:24:45Z</time>
      </trkpt>
      <trkpt lat="45.39268" lon="5.90073">
        <ele>1557.12</ele>
        <time>2017-09-23T09:24:58Z</time>
      </trkpt>
      <trkpt lat="45.39266" lon="5.90088">
        <ele>1556.29</ele>
        <time>2017-09-23T09:25:05Z</time>
      </trkpt>
      <trkpt lat="45.39269" lon="5.90101">
        <ele>1555.88</ele>
        <time>2017-09-23T09:25:12Z</time>
      </trkpt>
      <trkpt lat="45.3927" lon="5.90114">
        <ele>1556.87</ele>
        <time>2017-09-23T09:25:21Z</time>
      </trkpt>
      <trkpt lat="45.39277" lon="5.90122">
        <ele>1557.79</ele>
        <time>2017-09-23T09:25:29Z</time>
      </trkpt>
      <trkpt lat="45.39282" lon="5.90134">
        <ele>1556.61</ele>
        <time>2017-09-23T09:25:39Z</time>
      </trkpt>
      <trkpt lat="45.3929" lon="5.90143">
        <ele>1554.88</ele>
        <time>2017-09-23T09:25:50Z</time>
      </trkpt>
      <trkpt lat="45.39297" lon="5.90152">
        <ele>1551.6</ele>
        <time>2017-09-23T09:26:01Z</time>
      </trkpt>
      <trkpt lat="45.39299" lon="5.90165">
        <ele>1554.55</ele>
        <time>2017-09-23T09:26:09Z</time>
      </trkpt>
      <trkpt lat="45.39302" lon="5.90178">
        <ele>1551.68</ele>
        <time>2017-09-23T09:26:21Z</time>
      </trkpt>
      <trkpt lat="45.39305" lon="5.9019">
        <ele>1551.06</ele>
        <time>2017-09-23T09:26:34Z</time>
      </trkpt>
      <trkpt lat="45.39307" lon="5.90203">
        <ele>1551.88</ele>
        <time>2017-09-23T09:26:47Z</time>
      </trkpt>
      <trkpt lat="45.3931" lon="5.90215">
        <ele>1547.89</ele>
        <time>2017-09-23T09:27:10Z</time>
      </trkpt>
      <trkpt lat="45.39313" lon="5.90228">
        <ele>1545.88</ele>
        <time>2017-09-23T09:27:30Z</time>
      </trkpt>
      <trkpt lat="45.39321" lon="5.90234">
        <ele>1538.21</ele>
        <time>2017-09-23T09:27:46Z</time>
      </trkpt>
      <trkpt lat="45.3933" lon="5.90238">
        <ele>1535.61</ele>
        <time>2017-09-23T09:27:53Z</time>
      </trkpt>
      <trkpt lat="45.39339" lon="5.9024">
        <ele>1533.88</ele>
        <time>2017-09-23T09:28:08Z</time>
      </trkpt>
      <trkpt lat="45.39348" lon="5.90243">
        <ele>1531.65</ele>
        <time>2017-09-23T09:29:13Z</time>
      </trkpt>
      <trkpt lat="45.39358" lon="5.90244">
        <ele>1529.58</ele>
        <time>2017-09-23T09:29:22Z</time>
      </trkpt>
      <trkpt lat="45.39367" lon="5.90243">
        <ele>1527.09</ele>
        <time>2017-09-23T09:29:39Z</time>
      </trkpt>
      <trkpt lat="45.39377" lon="5.9024">
        <ele>1524.28</ele>
        <time>2017-09-23T09:29:52Z</time>
      </trkpt>
      <trkpt lat="45.39385" lon="5.90233">
        <ele>1523.15</ele>
        <time>2017-09-23T09:30:08Z</time>
      </trkpt>
      <trkpt lat="45.39394" lon="5.90229">
        <ele>1520.18</ele>
        <time>2017-09-23T09:30:16Z</time>
      </trkpt>
      <trkpt lat="45.39403" lon="5.90224">
        <ele>1518.89</ele>
        <time>2017-09-23T09:30:35Z</time>
      </trkpt>
      <trkpt lat="45.39412" lon="5.9022">
        <ele>1515.6</ele>
        <time>2017-09-23T09:30:48Z</time>
      </trkpt>
      <trkpt lat="45.3942" lon="5.90213">
        <ele>1513.77</ele>
        <time>2017-09-23T09:31:00Z</time>
      </trkpt>
      <trkpt lat="45.39428" lon="5.90206">
        <ele>1519.46</ele>
        <time>2017-09-23T09:31:15Z</time>
      </trkpt>
      <trkpt lat="45.39433" lon="5.90195">
        <ele>1516.92</ele>
        <time>2017-09-23T09:31:28Z</time>
      </trkpt>
      <trkpt lat="45.3944" lon="5.90186">
        <ele>1516.61</ele>
        <time>2017-09-23T09:31:44Z</time>
      </trkpt>
      <trkpt lat="45.39443" lon="5.90174">
        <ele>1508.05</ele>
        <time>2017-09-23T09:32:20Z</time>
      </trkpt>
      <trkpt lat="45.39447" lon="5.90162">
        <ele>1504.12</ele>
        <time>2017-09-23T09:32:39Z</time>
      </trkpt>
      <trkpt lat="45.39456" lon="5.90157">
        <ele>1498.89</ele>
        <time>2017-09-23T09:32:52Z</time>
      </trkpt>
      <trkpt lat="45.39465" lon="5.90154">
        <ele>1498.57</ele>
        <time>2017-09-23T09:33:05Z</time>
      </trkpt>
      <trkpt lat="45.39469" lon="5.90141">
        <ele>1498.9</ele>
        <time>2017-09-23T09:33:16Z</time>
      </trkpt>
      <trkpt lat="45.39476" lon="5.90133">
        <ele>1496.18</ele>
        <time>2017-09-23T09:33:28Z</time>
      </trkpt>
      <trkpt lat="45.39482" lon="5.90124">
        <ele>1491.01</ele>
        <time>2017-09-23T09:33:48Z</time>
      </trkpt>
      <trkpt lat="45.39485" lon="5.90111">
        <ele>1485.88</ele>
        <time>2017-09-23T09:34:08Z</time>
      </trkpt>
      <trkpt lat="45.39493" lon="5.90103">
        <ele>1484.91</ele>
        <time>2017-09-23T09:34:31Z</time>
      </trkpt>
      <trkpt lat="45.39493" lon="5.9009">
        <ele>1482.79</ele>
        <time>2017-09-23T09:34:56Z</time>
      </trkpt>
      <trkpt lat="45.39493" lon="5.90076">
        <ele>1488.6</ele>
        <time>2017-09-23T09:35:15Z</time>
      </trkpt>
      <trkpt lat="45.3949" lon="5.90064">
        <ele>1485.88</ele>
        <time>2017-09-23T09:35:31Z</time>
      </trkpt>
      <trkpt lat="45.39492" lon="5.9005">
        <ele>1486.69</ele>
        <time>2017-09-23T09:35:50Z</time>
      </trkpt>
      <trkpt lat="45.39497" lon="5.90038">
        <ele>1475.44</ele>
        <time>2017-09-23T09:36:11Z</time>
      </trkpt>
      <trkpt lat="45.39503" lon="5.90028">
        <ele>1467.51</ele>
        <time>2017-09-23T09:36:34Z</time>
      </trkpt>
      <trkpt lat="45.39512" lon="5.90028">
        <ele>1458.91</ele>
        <time>2017-09-23T09:36:44Z</time>
      </trkpt>
      <trkpt lat="45.39521" lon="5.90022">
        <ele>1460.08</ele>
        <time>2017-09-23T09:37:00Z</time>
      </trkpt>
      <trkpt lat="45.3953" lon="5.90025">
        <ele>1460.49</ele>
        <time>2017-09-23T09:37:12Z</time>
      </trkpt>
      <trkpt lat="45.39537" lon="5.90033">
        <ele>1460.96</ele>
        <time>2017-09-23T09:38:38Z</time>
      </trkpt>
      <trkpt lat="45.39545" lon="5.90041">
        <ele>1459.24</ele>
        <time>2017-09-23T09:39:03Z</time>
      </trkpt>
      <trkpt lat="45.39555" lon="5.90042">
        <ele>1461.58</ele>
        <time>2017-09-23T09:39:34Z</time>
      </trkpt>
      <trkpt lat="45.39555" lon="5.90055">
        <ele>1455.83</ele>
        <time>2017-09-23T09:40:01Z</time>
      </trkpt>
      <trkpt lat="45.3956" lon="5.90067">
        <ele>1458.86</ele>
        <time>2017-09-23T09:40:10Z</time>
      </trkpt>
      <trkpt lat="45.39565" lon="5.90078">
        <ele>1458.94</ele>
        <time>2017-09-23T09:40:21Z</time>
      </trkpt>
      <trkpt lat="45.3957" lon="5.90089">
        <ele>1459.9</ele>
        <time>2017-09-23T09:40:28Z</time>
      </trkpt>
      <trkpt lat="45.39577" lon="5.90097">
        <ele>1463.88</ele>
        <time>2017-09-23T09:40:47Z</time>
      </trkpt>
      <trkpt lat="45.39586" lon="5.90102">
        <ele>1464.06</ele>
        <time>2017-09-23T09:41:00Z</time>
      </trkpt>
      <trkpt lat="45.39588" lon="5.90089">
        <ele>1460.87</ele>
        <time>2017-09-23T09:41:12Z</time>
      </trkpt>
      <trkpt lat="45.39597" lon="5.90092">
        <ele>1448.3</ele>
        <time>2017-09-23T09:41:49Z</time>
      </trkpt>
      <trkpt lat="45.39604" lon="5.90101">
        <ele>1445.89</ele>
        <time>2017-09-23T09:41:57Z</time>
      </trkpt>
      <trkpt lat="45.39609" lon="5.90113">
        <ele>1449.51</ele>
        <time>2017-09-23T09:42:06Z</time>
      </trkpt>
      <trkpt lat="45.39612" lon="5.90126">
        <ele>1445.79</ele>
        <time>2017-09-23T09:42:15Z</time>
      </trkpt>
      <trkpt lat="45.39619" lon="5.90134">
        <ele>1439.17</ele>
        <time>2017-09-23T09:42:24Z</time>
      </trkpt>
      <trkpt lat="45.39626" lon="5.90144">
        <ele>1440.46</ele>
        <time>2017-09-23T09:42:41Z</time>
      </trkpt>
      <trkpt lat="45.39633" lon="5.90153">
        <ele>1446.56</ele>
        <time>2017-09-23T09:42:52Z</time>
      </trkpt>
      <trkpt lat="45.3964" lon="5.90162">
        <ele>1446.19</ele>
        <time>2017-09-23T09:43:05Z</time>
      </trkpt>
      <trkpt lat="45.39649" lon="5.9017">
        <ele>1446.58</ele>
        <time>2017-09-23T09:43:18Z</time>
      </trkpt>
      <trkpt lat="45.39658" lon="5.90175">
        <ele>1445.67</ele>
        <time>2017-09-23T09:43:26Z</time>
      </trkpt>
      <trkpt lat="45.39665" lon="5.90183">
        <ele>1444.17</ele>
        <time>2017-09-23T09:43:45Z</time>
      </trkpt>
      <trkpt lat="45.3967" lon="5.90195">
        <ele>1442.96</ele>
        <time>2017-09-23T09:43:56Z</time>
      </trkpt>
      <trkpt lat="45.39677" lon="5.90203">
        <ele>1443.85</ele>
        <time>2017-09-23T09:44:12Z</time>
      </trkpt>
      <trkpt lat="45.39684" lon="5.90211">
        <ele>1438.89</ele>
        <time>2017-09-23T09:44:19Z</time>
      </trkpt>
      <trkpt lat="45.3969" lon="5.90222">
        <ele>1437.25</ele>
        <time>2017-09-23T09:44:26Z</time>
      </trkpt>
      <trkpt lat="45.39697" lon="5.90231">
        <ele>1435.49</ele>
        <time>2017-09-23T09:44:33Z</time>
      </trkpt>
      <trkpt lat="45.39703" lon="5.9024">
        <ele>1436.49</ele>
        <time>2017-09-23T09:44:51Z</time>
      </trkpt>
      <trkpt lat="45.39712" lon="5.90246">
        <ele>1434.97</ele>
        <time>2017-09-23T09:45:00Z</time>
      </trkpt>
      <trkpt lat="45.3972" lon="5.90253">
        <ele>1433.25</ele>
        <time>2017-09-23T09:45:12Z</time>
      </trkpt>
      <trkpt lat="45.39725" lon="5.90263">
        <ele>1430.82</ele>
        <time>2017-09-23T09:45:20Z</time>
      </trkpt>
      <trkpt lat="45.39731" lon="5.90275">
        <ele>1435.18</ele>
        <time>2017-09-23T09:45:47Z</time>
      </trkpt>
      <trkpt lat="45.39739" lon="5.90282">
        <ele>1432.18</ele>
        <time>2017-09-23T09:46:07Z</time>
      </trkpt>
      <trkpt lat="45.39746" lon="5.9029">
        <ele>1427.18</ele>
        <time>2017-09-23T09:46:30Z</time>
      </trkpt>
      <trkpt lat="45.39755" lon="5.90299">
        <ele>1420.91</ele>
        <time>2017-09-23T09:46:52Z</time>
      </trkpt>
      <trkpt lat="45.39762" lon="5.90305">
        <ele>1423.21</ele>
        <time>2017-09-23T09:47:06Z</time>
      </trkpt>
      <trkpt lat="45.3977" lon="5.90313">
        <ele>1419.29</ele>
        <time>2017-09-23T09:47:25Z</time>
      </trkpt>
      <trkpt lat="45.39777" lon="5.9032">
        <ele>1419.49</ele>
        <time>2017-09-23T09:47:40Z</time>
      </trkpt>
      <trkpt lat="45.39778" lon="5.90306">
        <ele>1401.97</ele>
        <time>2017-09-23T09:48:28Z</time>
      </trkpt>
      <trkpt lat="45.39779" lon="5.90292">
        <ele>1400.21</ele>
        <time>2017-09-23T09:48:43Z</time>
      </trkpt>
      <trkpt lat="45.39774" lon="5.90281">
        <ele>1397.58</ele>
        <time>2017-09-23T09:48:54Z</time>
      </trkpt>
      <trkpt lat="45.39777" lon="5.90267">
        <ele>1389.37</ele>
        <time>2017-09-23T09:49:18Z</time>
      </trkpt>
      <trkpt lat="45.39781" lon="5.90256">
        <ele>1386.59</ele>
        <time>2017-09-23T09:49:34Z</time>
      </trkpt>
      <trkpt lat="45.39777" lon="5.90245">
        <ele>1382.37</ele>
        <time>2017-09-23T09:49:43Z</time>
      </trkpt>
      <trkpt lat="45.39786" lon="5.90251">
        <ele>1375.62</ele>
        <time>2017-09-23T09:50:12Z</time>
      </trkpt>
      <trkpt lat="45.39793" lon="5.90259">
        <ele>1373.79</ele>
        <time>2017-09-23T09:50:20Z</time>
      </trkpt>
      <trkpt lat="45.39802" lon="5.90263">
        <ele>1368.07</ele>
        <time>2017-09-23T09:50:36Z</time>
      </trkpt>
      <trkpt lat="45.39812" lon="5.9026">
        <ele>1365.84</ele>
        <time>2017-09-23T09:50:48Z</time>
      </trkpt>
      <trkpt lat="45.3982" lon="5.90267">
        <ele>1362.89</ele>
        <time>2017-09-23T09:50:57Z</time>
      </trkpt>
      <trkpt lat="45.39828" lon="5.90275">
        <ele>1361.21</ele>
        <time>2017-09-23T09:51:07Z</time>
      </trkpt>
      <trkpt lat="45.39834" lon="5.90285">
        <ele>1360.82</ele>
        <time>2017-09-23T09:51:15Z</time>
      </trkpt>
      <trkpt lat="45.39843" lon="5.9029">
        <ele>1360.06</ele>
        <time>2017-09-23T09:51:23Z</time>
      </trkpt>
      <trkpt lat="45.39852" lon="5.90297">
        <ele>1358.87</ele>
        <time>2017-09-23T09:51:28Z</time>
      </trkpt>
      <trkpt lat="45.39861" lon="5.90297">
        <ele>1356.82</ele>
        <time>2017-09-23T09:51:34Z</time>
      </trkpt>
      <trkpt lat="45.3987" lon="5.90295">
        <ele>1356.31</ele>
        <time>2017-09-23T09:51:49Z</time>
      </trkpt>
      <trkpt lat="45.3988" lon="5.90295">
        <ele>1355.05</ele>
        <time>2017-09-23T09:51:57Z</time>
      </trkpt>
      <trkpt lat="45.39891" lon="5.90297">
        <ele>1352.47</ele>
        <time>2017-09-23T09:52:06Z</time>
      </trkpt>
      <trkpt lat="45.39899" lon="5.90304">
        <ele>1354.76</ele>
        <time>2017-09-23T09:52:14Z</time>
      </trkpt>
      <trkpt lat="45.39908" lon="5.90308">
        <ele>1356</ele>
        <time>2017-09-23T09:52:25Z</time>
      </trkpt>
      <trkpt lat="45.39917" lon="5.90313">
        <ele>1352.04</ele>
        <time>2017-09-23T09:52:47Z</time>
      </trkpt>
      <trkpt lat="45.39926" lon="5.90311">
        <ele>1348.01</ele>
        <time>2017-09-23T09:53:41Z</time>
      </trkpt>
      <trkpt lat="45.39933" lon="5.90301">
        <ele>1347.78</ele>
        <time>2017-09-23T09:53:47Z</time>
      </trkpt>
      <trkpt lat="45.39941" lon="5.90297">
        <ele>1349.72</ele>
        <time>2017-09-23T09:53:59Z</time>
      </trkpt>
      <trkpt lat="45.3995" lon="5.90296">
        <ele>1348.32</ele>
        <time>2017-09-23T09:54:10Z</time>
      </trkpt>
      <trkpt lat="45.39958" lon="5.90304">
        <ele>1344.9</ele>
        <time>2017-09-23T09:54:17Z</time>
      </trkpt>
      <trkpt lat="45.39967" lon="5.9031">
        <ele>1343.6</ele>
        <time>2017-09-23T09:54:25Z</time>
      </trkpt>
      <trkpt lat="45.39975" lon="5.90319">
        <ele>1343.37</ele>
        <time>2017-09-23T09:54:37Z</time>
      </trkpt>
      <trkpt lat="45.3998" lon="5.90331">
        <ele>1346.66</ele>
        <time>2017-09-23T09:54:47Z</time>
      </trkpt>
      <trkpt lat="45.39988" lon="5.90337">
        <ele>1345.21</ele>
        <time>2017-09-23T09:54:56Z</time>
      </trkpt>
      <trkpt lat="45.39996" lon="5.90345">
        <ele>1343</ele>
        <time>2017-09-23T09:55:06Z</time>
      </trkpt>
      <trkpt lat="45.40005" lon="5.90351">
        <ele>1347.28</ele>
        <time>2017-09-23T09:55:23Z</time>
      </trkpt>
      <trkpt lat="45.40012" lon="5.9036">
        <ele>1347.85</ele>
        <time>2017-09-23T09:55:34Z</time>
      </trkpt>
      <trkpt lat="45.40019" lon="5.90369">
        <ele>1350.03</ele>
        <time>2017-09-23T09:55:42Z</time>
      </trkpt>
      <trkpt lat="45.40025" lon="5.90379">
        <ele>1352.96</ele>
        <time>2017-09-23T09:55:53Z</time>
      </trkpt>
      <trkpt lat="45.40034" lon="5.90378">
        <ele>1347.93</ele>
        <time>2017-09-23T09:56:08Z</time>
      </trkpt>
      <trkpt lat="45.40044" lon="5.9038">
        <ele>1344.5</ele>
        <time>2017-09-23T09:56:23Z</time>
      </trkpt>
      <trkpt lat="45.40053" lon="5.90384">
        <ele>1348.33</ele>
        <time>2017-09-23T09:56:34Z</time>
      </trkpt>
      <trkpt lat="45.40062" lon="5.90386">
        <ele>1347.67</ele>
        <time>2017-09-23T09:56:44Z</time>
      </trkpt>
      <trkpt lat="45.40069" lon="5.90394">
        <ele>1348.57</ele>
        <time>2017-09-23T09:56:57Z</time>
      </trkpt>
      <trkpt lat="45.40078" lon="5.90398">
        <ele>1345.49</ele>
        <time>2017-09-23T09:57:06Z</time>
      </trkpt>
      <trkpt lat="45.40087" lon="5.90404">
        <ele>1341.9</ele>
        <time>2017-09-23T09:57:15Z</time>
      </trkpt>
      <trkpt lat="45.40096" lon="5.90407">
        <ele>1344.71</ele>
        <time>2017-09-23T09:57:29Z</time>
      </trkpt>
      <trkpt lat="45.40106" lon="5.90409">
        <ele>1342.89</ele>
        <time>2017-09-23T09:57:45Z</time>
      </trkpt>
      <trkpt lat="45.40114" lon="5.90401">
        <ele>1336.86</ele>
        <time>2017-09-23T09:57:55Z</time>
      </trkpt>
      <trkpt lat="45.40123" lon="5.90402">
        <ele>1338.85</ele>
        <time>2017-09-23T09:58:07Z</time>
      </trkpt>
      <trkpt lat="45.40133" lon="5.90401">
        <ele>1332.97</ele>
        <time>2017-09-23T09:58:25Z</time>
      </trkpt>
      <trkpt lat="45.40143" lon="5.90403">
        <ele>1332.88</ele>
        <time>2017-09-23T09:58:34Z</time>
      </trkpt>
      <trkpt lat="45.40152" lon="5.904">
        <ele>1334.49</ele>
        <time>2017-09-23T09:58:42Z</time>
      </trkpt>
      <trkpt lat="45.40159" lon="5.90408">
        <ele>1330</ele>
        <time>2017-09-23T09:58:51Z</time>
      </trkpt>
      <trkpt lat="45.40168" lon="5.90406">
        <ele>1326.48</ele>
        <time>2017-09-23T09:59:29Z</time>
      </trkpt>
      <trkpt lat="45.40177" lon="5.90405">
        <ele>1322.37</ele>
        <time>2017-09-23T09:59:43Z</time>
      </trkpt>
      <trkpt lat="45.40187" lon="5.9041">
        <ele>1320.06</ele>
        <time>2017-09-23T09:59:53Z</time>
      </trkpt>
      <trkpt lat="45.40196" lon="5.90412">
        <ele>1319.94</ele>
        <time>2017-09-23T10:00:02Z</time>
      </trkpt>
      <trkpt lat="45.40205" lon="5.90416">
        <ele>1317.65</ele>
        <time>2017-09-23T10:00:10Z</time>
      </trkpt>
      <trkpt lat="45.40213" lon="5.90421">
        <ele>1316.85</ele>
        <time>2017-09-23T10:00:32Z</time>
      </trkpt>
      <trkpt lat="45.40222" lon="5.90423">
        <ele>1317.73</ele>
        <time>2017-09-23T10:00:40Z</time>
      </trkpt>
      <trkpt lat="45.40232" lon="5.90427">
        <ele>1317.2</ele>
        <time>2017-09-23T10:00:47Z</time>
      </trkpt>
      <trkpt lat="45.40242" lon="5.90428">
        <ele>1316.68</ele>
        <time>2017-09-23T10:00:56Z</time>
      </trkpt>
      <trkpt lat="45.40251" lon="5.90426">
        <ele>1312.5</ele>
        <time>2017-09-23T10:01:05Z</time>
      </trkpt>
      <trkpt lat="45.4026" lon="5.90423">
        <ele>1310.85</ele>
        <time>2017-09-23T10:01:21Z</time>
      </trkpt>
      <trkpt lat="45.40269" lon="5.90419">
        <ele>1306.88</ele>
        <time>2017-09-23T10:01:40Z</time>
      </trkpt>
      <trkpt lat="45.40277" lon="5.90413">
        <ele>1304.58</ele>
        <time>2017-09-23T10:01:51Z</time>
      </trkpt>
      <trkpt lat="45.40287" lon="5.90415">
        <ele>1301.44</ele>
        <time>2017-09-23T10:02:01Z</time>
      </trkpt>
      <trkpt lat="45.40297" lon="5.90411">
        <ele>1295.88</ele>
        <time>2017-09-23T10:02:12Z</time>
      </trkpt>
      <trkpt lat="45.40306" lon="5.90407">
        <ele>1296.19</ele>
        <time>2017-09-23T10:02:28Z</time>
      </trkpt>
      <trkpt lat="45.40314" lon="5.90403">
        <ele>1300.91</ele>
        <time>2017-09-23T10:02:42Z</time>
      </trkpt>
      <trkpt lat="45.40324" lon="5.90405">
        <ele>1295.02</ele>
        <time>2017-09-23T10:03:00Z</time>
      </trkpt>
      <trkpt lat="45.40331" lon="5.90396">
        <ele>1297.59</ele>
        <time>2017-09-23T10:03:17Z</time>
      </trkpt>
      <trkpt lat="45.40338" lon="5.90388">
        <ele>1299.09</ele>
        <time>2017-09-23T10:03:26Z</time>
      </trkpt>
      <trkpt lat="45.40344" lon="5.90378">
        <ele>1292.99</ele>
        <time>2017-09-23T10:03:35Z</time>
      </trkpt>
      <trkpt lat="45.40354" lon="5.90375">
        <ele>1288.93</ele>
        <time>2017-09-23T10:03:43Z</time>
      </trkpt>
      <trkpt lat="45.40358" lon="5.90364">
        <ele>1282.57</ele>
        <time>2017-09-23T10:03:57Z</time>
      </trkpt>
      <trkpt lat="45.40361" lon="5.90351">
        <ele>1278.91</ele>
        <time>2017-09-23T10:04:06Z</time>
      </trkpt>
      <trkpt lat="45.40357" lon="5.9034">
        <ele>1268.98</ele>
        <time>2017-09-23T10:04:18Z</time>
      </trkpt>
      <trkpt lat="45.4036" lon="5.90327">
        <ele>1267.29</ele>
        <time>2017-09-23T10:04:33Z</time>
      </trkpt>
      <trkpt lat="45.40362" lon="5.90315">
        <ele>1265.18</ele>
        <time>2017-09-23T10:04:43Z</time>
      </trkpt>
      <trkpt lat="45.40364" lon="5.90301">
        <ele>1259.16</ele>
        <time>2017-09-23T10:04:54Z</time>
      </trkpt>
      <trkpt lat="45.40362" lon="5.90288">
        <ele>1252.69</ele>
        <time>2017-09-23T10:05:03Z</time>
      </trkpt>
      <trkpt lat="45.40354" lon="5.9028">
        <ele>1253.27</ele>
        <time>2017-09-23T10:05:17Z</time>
      </trkpt>
      <trkpt lat="45.40345" lon="5.90281">
        <ele>1256.84</ele>
        <time>2017-09-23T10:05:28Z</time>
      </trkpt>
      <trkpt lat="45.40336" lon="5.90287">
        <ele>1252.79</ele>
        <time>2017-09-23T10:05:39Z</time>
      </trkpt>
      <trkpt lat="45.40335" lon="5.90274">
        <ele>1249.58</ele>
        <time>2017-09-23T10:06:02Z</time>
      </trkpt>
      <trkpt lat="45.40334" lon="5.9026">
        <ele>1247.55</ele>
        <time>2017-09-23T10:06:15Z</time>
      </trkpt>
      <trkpt lat="45.40333" lon="5.90246">
        <ele>1239.24</ele>
        <time>2017-09-23T10:06:27Z</time>
      </trkpt>
      <trkpt lat="45.40331" lon="5.90234">
        <ele>1240.72</ele>
        <time>2017-09-23T10:06:41Z</time>
      </trkpt>
      <trkpt lat="45.40323" lon="5.90226">
        <ele>1236.43</ele>
        <time>2017-09-23T10:06:50Z</time>
      </trkpt>
      <trkpt lat="45.40324" lon="5.90213">
        <ele>1228.68</ele>
        <time>2017-09-23T10:07:08Z</time>
      </trkpt>
      <trkpt lat="45.40325" lon="5.902">
        <ele>1226.21</ele>
        <time>2017-09-23T10:07:18Z</time>
      </trkpt>
      <trkpt lat="45.40324" lon="5.90186">
        <ele>1224.81</ele>
        <time>2017-09-23T10:07:33Z</time>
      </trkpt>
      <trkpt lat="45.40325" lon="5.90172">
        <ele>1221.24</ele>
        <time>2017-09-23T10:07:50Z</time>
      </trkpt>
      <trkpt lat="45.40326" lon="5.90159">
        <ele>1224.7</ele>
        <time>2017-09-23T10:08:10Z</time>
      </trkpt>
      <trkpt lat="45.40333" lon="5.90151">
        <ele>1215.65</ele>
        <time>2017-09-23T10:08:24Z</time>
      </trkpt>
      <trkpt lat="45.40341" lon="5.90144">
        <ele>1205.61</ele>
        <time>2017-09-23T10:08:46Z</time>
      </trkpt>
      <trkpt lat="45.4034" lon="5.9013">
        <ele>1200.98</ele>
        <time>2017-09-23T10:09:12Z</time>
      </trkpt>
      <trkpt lat="45.40338" lon="5.90117">
        <ele>1200.1</ele>
        <time>2017-09-23T10:09:19Z</time>
      </trkpt>
      <trkpt lat="45.40339" lon="5.90103">
        <ele>1196.85</ele>
        <time>2017-09-23T10:09:34Z</time>
      </trkpt>
      <trkpt lat="45.40343" lon="5.90091">
        <ele>1190.88</ele>
        <time>2017-09-23T10:09:44Z</time>
      </trkpt>
      <trkpt lat="45.40345" lon="5.90077">
        <ele>1190.89</ele>
        <time>2017-09-23T10:09:57Z</time>
      </trkpt>
      <trkpt lat="45.40345" lon="5.90064">
        <ele>1186.27</ele>
        <time>2017-09-23T10:10:19Z</time>
      </trkpt>
      <trkpt lat="45.40347" lon="5.9005">
        <ele>1184.23</ele>
        <time>2017-09-23T10:10:29Z</time>
      </trkpt>
      <trkpt lat="45.4035" lon="5.90038">
        <ele>1182.39</ele>
        <time>2017-09-23T10:10:39Z</time>
      </trkpt>
      <trkpt lat="45.40357" lon="5.90029">
        <ele>1175.69</ele>
        <time>2017-09-23T10:10:51Z</time>
      </trkpt>
      <trkpt lat="45.40354" lon="5.90016">
        <ele>1178.51</ele>
        <time>2017-09-23T10:11:06Z</time>
      </trkpt>
      <trkpt lat="45.40352" lon="5.90003">
        <ele>1177.25</ele>
        <time>2017-09-23T10:11:35Z</time>
      </trkpt>
      <trkpt lat="45.40354" lon="5.8999">
        <ele>1176.65</ele>
        <time>2017-09-23T10:11:41Z</time>
      </trkpt>
      <trkpt lat="45.40349" lon="5.89979">
        <ele>1175.68</ele>
        <time>2017-09-23T10:11:46Z</time>
      </trkpt>
      <trkpt lat="45.40359" lon="5.89976">
        <ele>1163.34</ele>
        <time>2017-09-23T10:12:03Z</time>
      </trkpt>
      <trkpt lat="45.40359" lon="5.89963">
        <ele>1159</ele>
        <time>2017-09-23T10:12:14Z</time>
      </trkpt>
      <trkpt lat="45.40362" lon="5.8995">
        <ele>1155.16</ele>
        <time>2017-09-23T10:12:24Z</time>
      </trkpt>
      <trkpt lat="45.40364" lon="5.89937">
        <ele>1151.01</ele>
        <time>2017-09-23T10:12:32Z</time>
      </trkpt>
      <trkpt lat="45.40369" lon="5.89925">
        <ele>1153.71</ele>
        <time>2017-09-23T10:12:39Z</time>
      </trkpt>
      <trkpt lat="45.40376" lon="5.89916">
        <ele>1147.97</ele>
        <time>2017-09-23T10:12:48Z</time>
      </trkpt>
      <trkpt lat="45.40374" lon="5.89902">
        <ele>1149.92</ele>
        <time>2017-09-23T10:12:56Z</time>
      </trkpt>
      <trkpt lat="45.40381" lon="5.89892">
        <ele>1148.1</ele>
        <time>2017-09-23T10:14:07Z</time>
      </trkpt>
      <trkpt lat="45.40386" lon="5.89881">
        <ele>1145.64</ele>
        <time>2017-09-23T10:14:13Z</time>
      </trkpt>
      <trkpt lat="45.40391" lon="5.89869">
        <ele>1136.55</ele>
        <time>2017-09-23T10:14:21Z</time>
      </trkpt>
      <trkpt lat="45.40396" lon="5.89857">
        <ele>1132.71</ele>
        <time>2017-09-23T10:14:28Z</time>
      </trkpt>
      <trkpt lat="45.40396" lon="5.89843">
        <ele>1131.88</ele>
        <time>2017-09-23T10:14:35Z</time>
      </trkpt>
      <trkpt lat="45.40396" lon="5.89829">
        <ele>1132.36</ele>
        <time>2017-09-23T10:14:42Z</time>
      </trkpt>
      <trkpt lat="45.40397" lon="5.89815">
        <ele>1127.91</ele>
        <time>2017-09-23T10:14:48Z</time>
      </trkpt>
      <trkpt lat="45.40399" lon="5.89802">
        <ele>1127.85</ele>
        <time>2017-09-23T10:14:54Z</time>
      </trkpt>
      <trkpt lat="45.40403" lon="5.89789">
        <ele>1131.78</ele>
        <time>2017-09-23T10:15:03Z</time>
      </trkpt>
      <trkpt lat="45.40407" lon="5.89777">
        <ele>1133.61</ele>
        <time>2017-09-23T10:15:10Z</time>
      </trkpt>
      <trkpt lat="45.40409" lon="5.89762">
        <ele>1135.36</ele>
        <time>2017-09-23T10:15:15Z</time>
      </trkpt>
      <trkpt lat="45.40414" lon="5.8975">
        <ele>1133.38</ele>
        <time>2017-09-23T10:15:22Z</time>
      </trkpt>
      <trkpt lat="45.4042" lon="5.89738">
        <ele>1133.01</ele>
        <time>2017-09-23T10:15:29Z</time>
      </trkpt>
      <trkpt lat="45.40425" lon="5.89726">
        <ele>1131.69</ele>
        <time>2017-09-23T10:15:38Z</time>
      </trkpt>
      <trkpt lat="45.40428" lon="5.89712">
        <ele>1133.79</ele>
        <time>2017-09-23T10:15:45Z</time>
      </trkpt>
      <trkpt lat="45.40434" lon="5.897">
        <ele>1131.91</ele>
        <time>2017-09-23T10:15:52Z</time>
      </trkpt>
      <trkpt lat="45.40436" lon="5.89686">
        <ele>1131.96</ele>
        <time>2017-09-23T10:15:59Z</time>
      </trkpt>
      <trkpt lat="45.40439" lon="5.89673">
        <ele>1129.83</ele>
        <time>2017-09-23T10:16:06Z</time>
      </trkpt>
      <trkpt lat="45.40441" lon="5.89659">
        <ele>1131.57</ele>
        <time>2017-09-23T10:16:16Z</time>
      </trkpt>
      <trkpt lat="45.40442" lon="5.89645">
        <ele>1129.7</ele>
        <time>2017-09-23T10:16:22Z</time>
      </trkpt>
      <trkpt lat="45.40445" lon="5.89632">
        <ele>1126.39</ele>
        <time>2017-09-23T10:16:29Z</time>
      </trkpt>
      <trkpt lat="45.4045" lon="5.8962">
        <ele>1126.84</ele>
        <time>2017-09-23T10:16:37Z</time>
      </trkpt>
      <trkpt lat="45.40456" lon="5.89611">
        <ele>1130.47</ele>
        <time>2017-09-23T10:16:44Z</time>
      </trkpt>
      <trkpt lat="45.40464" lon="5.89604">
        <ele>1127.82</ele>
        <time>2017-09-23T10:16:56Z</time>
      </trkpt>
      <trkpt lat="45.40472" lon="5.89597">
        <ele>1127.9</ele>
        <time>2017-09-23T10:17:04Z</time>
      </trkpt>
      <trkpt lat="45.40479" lon="5.89587">
        <ele>1129.88</ele>
        <time>2017-09-23T10:17:15Z</time>
      </trkpt>
      <trkpt lat="45.40487" lon="5.89579">
        <ele>1131.87</ele>
        <time>2017-09-23T10:17:23Z</time>
      </trkpt>
      <trkpt lat="45.40493" lon="5.89569">
        <ele>1135.8</ele>
        <time>2017-09-23T10:17:32Z</time>
      </trkpt>
      <trkpt lat="45.40503" lon="5.89563">
        <ele>1134.7</ele>
        <time>2017-09-23T10:17:40Z</time>
      </trkpt>
      <trkpt lat="45.40511" lon="5.89557">
        <ele>1136.25</ele>
        <time>2017-09-23T10:17:46Z</time>
      </trkpt>
      <trkpt lat="45.40518" lon="5.89547">
        <ele>1135.34</ele>
        <time>2017-09-23T10:17:54Z</time>
      </trkpt>
      <trkpt lat="45.40526" lon="5.89541">
        <ele>1125.77</ele>
        <time>2017-09-23T10:18:04Z</time>
      </trkpt>
      <trkpt lat="45.40534" lon="5.89534">
        <ele>1129.16</ele>
        <time>2017-09-23T10:18:10Z</time>
      </trkpt>
      <trkpt lat="45.40543" lon="5.89537">
        <ele>1125.53</ele>
        <time>2017-09-23T10:18:17Z</time>
      </trkpt>
      <trkpt lat="45.40552" lon="5.89532">
        <ele>1128.87</ele>
        <time>2017-09-23T10:18:25Z</time>
      </trkpt>
      <trkpt lat="45.40561" lon="5.89529">
        <ele>1126</ele>
        <time>2017-09-23T10:18:31Z</time>
      </trkpt>
      <trkpt lat="45.4057" lon="5.89527">
        <ele>1121.68</ele>
        <time>2017-09-23T10:18:37Z</time>
      </trkpt>
      <trkpt lat="45.40578" lon="5.89517">
        <ele>1125.27</ele>
        <time>2017-09-23T10:18:44Z</time>
      </trkpt>
      <trkpt lat="45.40586" lon="5.89512">
        <ele>1128.9</ele>
        <time>2017-09-23T10:18:53Z</time>
      </trkpt>
      <trkpt lat="45.40594" lon="5.89521">
        <ele>1124.38</ele>
        <time>2017-09-23T10:18:59Z</time>
      </trkpt>
      <trkpt lat="45.40601" lon="5.89529">
        <ele>1121.86</ele>
        <time>2017-09-23T10:19:08Z</time>
      </trkpt>
      <trkpt lat="45.40611" lon="5.89529">
        <ele>1120.92</ele>
        <time>2017-09-23T10:19:14Z</time>
      </trkpt>
      <trkpt lat="45.40621" lon="5.89532">
        <ele>1120.68</ele>
        <time>2017-09-23T10:19:20Z</time>
      </trkpt>
      <trkpt lat="45.40631" lon="5.89538">
        <ele>1122.46</ele>
        <time>2017-09-23T10:19:26Z</time>
      </trkpt>
      <trkpt lat="45.40641" lon="5.8954">
        <ele>1118.93</ele>
        <time>2017-09-23T10:19:32Z</time>
      </trkpt>
      <trkpt lat="45.4065" lon="5.89543">
        <ele>1117.71</ele>
        <time>2017-09-23T10:19:38Z</time>
      </trkpt>
      <trkpt lat="45.40658" lon="5.89552">
        <ele>1117.73</ele>
        <time>2017-09-23T10:19:45Z</time>
      </trkpt>
      <trkpt lat="45.40668" lon="5.89557">
        <ele>1119.99</ele>
        <time>2017-09-23T10:19:53Z</time>
      </trkpt>
      <trkpt lat="45.40677" lon="5.8956">
        <ele>1117.89</ele>
        <time>2017-09-23T10:19:58Z</time>
      </trkpt>
      <trkpt lat="45.40686" lon="5.89559">
        <ele>1124.7</ele>
        <time>2017-09-23T10:20:05Z</time>
      </trkpt>
      <trkpt lat="45.40696" lon="5.89558">
        <ele>1125.7</ele>
        <time>2017-09-23T10:20:13Z</time>
      </trkpt>
      <trkpt lat="45.40706" lon="5.89556">
        <ele>1125.9</ele>
        <time>2017-09-23T10:20:19Z</time>
      </trkpt>
      <trkpt lat="45.40715" lon="5.89553">
        <ele>1125.74</ele>
        <time>2017-09-23T10:20:27Z</time>
      </trkpt>
      <trkpt lat="45.40725" lon="5.89554">
        <ele>1125.88</ele>
        <time>2017-09-23T10:20:35Z</time>
      </trkpt>
      <trkpt lat="45.40734" lon="5.89558">
        <ele>1120.89</ele>
        <time>2017-09-23T10:20:42Z</time>
      </trkpt>
      <trkpt lat="45.40744" lon="5.8956">
        <ele>1111.7</ele>
        <time>2017-09-23T10:20:49Z</time>
      </trkpt>
      <trkpt lat="45.40753" lon="5.89556">
        <ele>1112.6</ele>
        <time>2017-09-23T10:20:54Z</time>
      </trkpt>
      <trkpt lat="45.40761" lon="5.89549">
        <ele>1110.18</ele>
        <time>2017-09-23T10:21:01Z</time>
      </trkpt>
      <trkpt lat="45.4077" lon="5.89546">
        <ele>1109.19</ele>
        <time>2017-09-23T10:21:09Z</time>
      </trkpt>
      <trkpt lat="45.4078" lon="5.89544">
        <ele>1108.48</ele>
        <time>2017-09-23T10:21:16Z</time>
      </trkpt>
      <trkpt lat="45.4079" lon="5.89542">
        <ele>1113.63</ele>
        <time>2017-09-23T10:21:21Z</time>
      </trkpt>
      <trkpt lat="45.40798" lon="5.89534">
        <ele>1118.25</ele>
        <time>2017-09-23T10:21:27Z</time>
      </trkpt>
      <trkpt lat="45.40805" lon="5.89526">
        <ele>1117.75</ele>
        <time>2017-09-23T10:21:34Z</time>
      </trkpt>
      <trkpt lat="45.40813" lon="5.89518">
        <ele>1120.88</ele>
        <time>2017-09-23T10:21:41Z</time>
      </trkpt>
      <trkpt lat="45.4082" lon="5.89508">
        <ele>1122.89</ele>
        <time>2017-09-23T10:21:49Z</time>
      </trkpt>
      <trkpt lat="45.40828" lon="5.895">
        <ele>1116.6</ele>
        <time>2017-09-23T10:21:56Z</time>
      </trkpt>
      <trkpt lat="45.40835" lon="5.8949">
        <ele>1112.3</ele>
        <time>2017-09-23T10:22:03Z</time>
      </trkpt>
      <trkpt lat="45.40844" lon="5.89486">
        <ele>1110.29</ele>
        <time>2017-09-23T10:22:09Z</time>
      </trkpt>
      <trkpt lat="45.40853" lon="5.89485">
        <ele>1108.65</ele>
        <time>2017-09-23T10:22:15Z</time>
      </trkpt>
      <trkpt lat="45.40855" lon="5.89471">
        <ele>1113.56</ele>
        <time>2017-09-23T10:22:22Z</time>
      </trkpt>
      <trkpt lat="45.4086" lon="5.89459">
        <ele>1102.96</ele>
        <time>2017-09-23T10:22:29Z</time>
      </trkpt>
      <trkpt lat="45.40851" lon="5.89453">
        <ele>1090.36</ele>
        <time>2017-09-23T10:23:00Z</time>
      </trkpt>
      <trkpt lat="45.40843" lon="5.89445">
        <ele>1095.08</ele>
        <time>2017-09-23T10:23:11Z</time>
      </trkpt>
      <trkpt lat="45.40833" lon="5.89447">
        <ele>1091.83</ele>
        <time>2017-09-23T10:23:20Z</time>
      </trkpt>
      <trkpt lat="45.40824" lon="5.89449">
        <ele>1088.5</ele>
        <time>2017-09-23T10:23:29Z</time>
      </trkpt>
      <trkpt lat="45.40814" lon="5.89452">
        <ele>1085.19</ele>
        <time>2017-09-23T10:23:39Z</time>
      </trkpt>
      <trkpt lat="45.40805" lon="5.89455">
        <ele>1080.85</ele>
        <time>2017-09-23T10:23:50Z</time>
      </trkpt>
      <trkpt lat="45.40796" lon="5.8945">
        <ele>1078.66</ele>
        <time>2017-09-23T10:24:09Z</time>
      </trkpt>
      <trkpt lat="45.40788" lon="5.89443">
        <ele>1077.84</ele>
        <time>2017-09-23T10:24:23Z</time>
      </trkpt>
      <trkpt lat="45.4078" lon="5.89437">
        <ele>1078.88</ele>
        <time>2017-09-23T10:24:39Z</time>
      </trkpt>
      <trkpt lat="45.40773" lon="5.89428">
        <ele>1074.61</ele>
        <time>2017-09-23T10:24:54Z</time>
      </trkpt>
      <trkpt lat="45.40767" lon="5.89418">
        <ele>1071.13</ele>
        <time>2017-09-23T10:25:06Z</time>
      </trkpt>
      <trkpt lat="45.40774" lon="5.89408">
        <ele>1053.6</ele>
        <time>2017-09-23T10:25:33Z</time>
      </trkpt>
      <trkpt lat="45.40767" lon="5.89398">
        <ele>1045.94</ele>
        <time>2017-09-23T10:25:45Z</time>
      </trkpt>
      <trkpt lat="45.40762" lon="5.89386">
        <ele>1043.45</ele>
        <time>2017-09-23T10:26:06Z</time>
      </trkpt>
      <trkpt lat="45.40763" lon="5.89372">
        <ele>1031.29</ele>
        <time>2017-09-23T10:26:34Z</time>
      </trkpt>
      <trkpt lat="45.40764" lon="5.89359">
        <ele>1026.91</ele>
        <time>2017-09-23T10:27:08Z</time>
      </trkpt>
      <trkpt lat="45.40763" lon="5.89345">
        <ele>1033.22</ele>
        <time>2017-09-23T10:27:28Z</time>
      </trkpt>
      <trkpt lat="45.40764" lon="5.89332">
        <ele>1031.02</ele>
        <time>2017-09-23T10:27:34Z</time>
      </trkpt>
      <trkpt lat="45.40763" lon="5.89318">
        <ele>1027.3</ele>
        <time>2017-09-23T10:27:42Z</time>
      </trkpt>
      <trkpt lat="45.4076" lon="5.89305">
        <ele>1020.18</ele>
        <time>2017-09-23T10:27:50Z</time>
      </trkpt>
      <trkpt lat="45.40755" lon="5.89294">
        <ele>1007.28</ele>
        <time>2017-09-23T10:28:08Z</time>
      </trkpt>
      <trkpt lat="45.40747" lon="5.89285">
        <ele>1000.56</ele>
        <time>2017-09-23T10:28:19Z</time>
      </trkpt>
      <trkpt lat="45.40739" lon="5.89277">
        <ele>998.61</ele>
        <time>2017-09-23T10:28:34Z</time>
      </trkpt>
      <trkpt lat="45.40731" lon="5.8927">
        <ele>998.97</ele>
        <time>2017-09-23T10:28:43Z</time>
      </trkpt>
      <trkpt lat="45.40722" lon="5.89264">
        <ele>1000.63</ele>
        <time>2017-09-23T10:28:57Z</time>
      </trkpt>
      <trkpt lat="45.40716" lon="5.89254">
        <ele>1001.9</ele>
        <time>2017-09-23T10:29:06Z</time>
      </trkpt>
      <trkpt lat="45.40711" lon="5.89243">
        <ele>997.7</ele>
        <time>2017-09-23T10:29:24Z</time>
      </trkpt>
      <trkpt lat="45.40711" lon="5.89229">
        <ele>996.92</ele>
        <time>2017-09-23T10:29:36Z</time>
      </trkpt>
      <trkpt lat="45.40706" lon="5.89217">
        <ele>995.76</ele>
        <time>2017-09-23T10:29:43Z</time>
      </trkpt>
      <trkpt lat="45.40703" lon="5.89205">
        <ele>982.28</ele>
        <time>2017-09-23T10:29:55Z</time>
      </trkpt>
      <trkpt lat="45.40697" lon="5.89194">
        <ele>969</ele>
        <time>2017-09-23T10:30:12Z</time>
      </trkpt>
      <trkpt lat="45.4069" lon="5.89185">
        <ele>965.79</ele>
        <time>2017-09-23T10:30:32Z</time>
      </trkpt>
      <trkpt lat="45.40684" lon="5.89176">
        <ele>964.39</ele>
        <time>2017-09-23T10:30:41Z</time>
      </trkpt>
      <trkpt lat="45.40678" lon="5.89164">
        <ele>962.85</ele>
        <time>2017-09-23T10:30:54Z</time>
      </trkpt>
      <trkpt lat="45.40672" lon="5.89154">
        <ele>963.9</ele>
        <time>2017-09-23T10:31:03Z</time>
      </trkpt>
      <trkpt lat="45.40665" lon="5.89145">
        <ele>954.52</ele>
        <time>2017-09-23T10:31:24Z</time>
      </trkpt>
      <trkpt lat="45.40658" lon="5.89136">
        <ele>951.88</ele>
        <time>2017-09-23T10:31:39Z</time>
      </trkpt>
      <trkpt lat="45.4065" lon="5.89127">
        <ele>952.04</ele>
        <time>2017-09-23T10:31:58Z</time>
      </trkpt>
      <trkpt lat="45.40645" lon="5.89115">
        <ele>945.58</ele>
        <time>2017-09-23T10:32:10Z</time>
      </trkpt>
      <trkpt lat="45.4064" lon="5.89104">
        <ele>935.31</ele>
        <time>2017-09-23T10:32:25Z</time>
      </trkpt>
      <trkpt lat="45.40635" lon="5.89091">
        <ele>935.11</ele>
        <time>2017-09-23T10:32:32Z</time>
      </trkpt>
      <trkpt lat="45.40632" lon="5.89078">
        <ele>936.85</ele>
        <time>2017-09-23T10:32:40Z</time>
      </trkpt>
      <trkpt lat="45.4063" lon="5.89065">
        <ele>932.91</ele>
        <time>2017-09-23T10:32:50Z</time>
      </trkpt>
      <trkpt lat="45.40624" lon="5.89055">
        <ele>924.99</ele>
        <time>2017-09-23T10:33:02Z</time>
      </trkpt>
      <trkpt lat="45.40619" lon="5.89044">
        <ele>920.55</ele>
        <time>2017-09-23T10:33:13Z</time>
      </trkpt>
      <trkpt lat="45.40613" lon="5.89033">
        <ele>910.1</ele>
        <time>2017-09-23T10:33:38Z</time>
      </trkpt>
      <trkpt lat="45.40607" lon="5.89023">
        <ele>904.79</ele>
        <time>2017-09-23T10:35:18Z</time>
      </trkpt>
      <trkpt lat="45.40606" lon="5.89009">
        <ele>905.67</ele>
        <time>2017-09-23T10:35:28Z</time>
      </trkpt>
      <trkpt lat="45.40604" lon="5.88996">
        <ele>904.61</ele>
        <time>2017-09-23T10:35:38Z</time>
      </trkpt>
      <trkpt lat="45.406" lon="5.88984">
        <ele>904.18</ele>
        <time>2017-09-23T10:35:46Z</time>
      </trkpt>
      <trkpt lat="45.40595" lon="5.88972">
        <ele>902.09</ele>
        <time>2017-09-23T10:35:55Z</time>
      </trkpt>
      <trkpt lat="45.40591" lon="5.8896">
        <ele>904.89</ele>
        <time>2017-09-23T10:36:23Z</time>
      </trkpt>
      <trkpt lat="45.40586" lon="5.88947">
        <ele>905.76</ele>
        <time>2017-09-23T10:36:30Z</time>
      </trkpt>
      <trkpt lat="45.40584" lon="5.88935">
        <ele>899.33</ele>
        <time>2017-09-23T10:36:39Z</time>
      </trkpt>
      <trkpt lat="45.40577" lon="5.88924">
        <ele>894.97</ele>
        <time>2017-09-23T10:36:48Z</time>
      </trkpt>
      <trkpt lat="45.40573" lon="5.88913">
        <ele>895.18</ele>
        <time>2017-09-23T10:36:54Z</time>
      </trkpt>
      <trkpt lat="45.40568" lon="5.889">
        <ele>893.15</ele>
        <time>2017-09-23T10:37:03Z</time>
      </trkpt>
      <trkpt lat="45.40558" lon="5.88899">
        <ele>887.31</ele>
        <time>2017-09-23T10:37:14Z</time>
      </trkpt>
      <trkpt lat="45.4056" lon="5.88887">
        <ele>885.51</ele>
        <time>2017-09-23T10:37:31Z</time>
      </trkpt>
      <trkpt lat="45.40561" lon="5.88873">
        <ele>886.92</ele>
        <time>2017-09-23T10:37:46Z</time>
      </trkpt>
      <trkpt lat="45.40558" lon="5.8886">
        <ele>879.65</ele>
        <time>2017-09-23T10:37:54Z</time>
      </trkpt>
      <trkpt lat="45.40554" lon="5.88847">
        <ele>872.19</ele>
        <time>2017-09-23T10:38:23Z</time>
      </trkpt>
      <trkpt lat="45.40554" lon="5.88834">
        <ele>871.87</ele>
        <time>2017-09-23T10:38:30Z</time>
      </trkpt>
      <trkpt lat="45.40551" lon="5.88821">
        <ele>867.88</ele>
        <time>2017-09-23T10:38:40Z</time>
      </trkpt>
      <trkpt lat="45.4055" lon="5.88807">
        <ele>866.91</ele>
        <time>2017-09-23T10:38:49Z</time>
      </trkpt>
      <trkpt lat="45.40542" lon="5.88798">
        <ele>868.26</ele>
        <time>2017-09-23T10:38:56Z</time>
      </trkpt>
      <trkpt lat="45.40541" lon="5.88783">
        <ele>864.56</ele>
        <time>2017-09-23T10:39:18Z</time>
      </trkpt>
      <trkpt lat="45.40538" lon="5.88771">
        <ele>864.71</ele>
        <time>2017-09-23T10:39:28Z</time>
      </trkpt>
      <trkpt lat="45.40531" lon="5.88762">
        <ele>860.27</ele>
        <time>2017-09-23T10:39:36Z</time>
      </trkpt>
      <trkpt lat="45.40531" lon="5.88749">
        <ele>854.22</ele>
        <time>2017-09-23T10:39:44Z</time>
      </trkpt>
      <trkpt lat="45.40531" lon="5.88736">
        <ele>852.3</ele>
        <time>2017-09-23T10:39:51Z</time>
      </trkpt>
      <trkpt lat="45.40525" lon="5.88726">
        <ele>853.49</ele>
        <time>2017-09-23T10:39:58Z</time>
      </trkpt>
      <trkpt lat="45.4052" lon="5.88713">
        <ele>847</ele>
        <time>2017-09-23T10:40:08Z</time>
      </trkpt>
      <trkpt lat="45.40516" lon="5.88701">
        <ele>843.62</ele>
        <time>2017-09-23T10:40:17Z</time>
      </trkpt>
      <trkpt lat="45.40509" lon="5.8869">
        <ele>842.18</ele>
        <time>2017-09-23T10:40:23Z</time>
      </trkpt>
      <trkpt lat="45.40504" lon="5.88679">
        <ele>842.99</ele>
        <time>2017-09-23T10:40:31Z</time>
      </trkpt>
      <trkpt lat="45.40501" lon="5.88666">
        <ele>849.45</ele>
        <time>2017-09-23T10:40:40Z</time>
      </trkpt>
      <trkpt lat="45.40492" lon="5.88663">
        <ele>842.19</ele>
        <time>2017-09-23T10:40:52Z</time>
      </trkpt>
      <trkpt lat="45.40484" lon="5.8867">
        <ele>843.85</ele>
        <time>2017-09-23T10:40:58Z</time>
      </trkpt>
      <trkpt lat="45.40476" lon="5.88678">
        <ele>846.6</ele>
        <time>2017-09-23T10:41:06Z</time>
      </trkpt>
      <trkpt lat="45.40467" lon="5.88684">
        <ele>846.89</ele>
        <time>2017-09-23T10:41:14Z</time>
      </trkpt>
      <trkpt lat="45.40465" lon="5.88697">
        <ele>843.18</ele>
        <time>2017-09-23T10:41:20Z</time>
      </trkpt>
      <trkpt lat="45.40462" lon="5.88709">
        <ele>840.58</ele>
        <time>2017-09-23T10:41:27Z</time>
      </trkpt>
      <trkpt lat="45.40452" lon="5.88713">
        <ele>843.99</ele>
        <time>2017-09-23T10:41:34Z</time>
      </trkpt>
      <trkpt lat="45.40442" lon="5.88714">
        <ele>844.85</ele>
        <time>2017-09-23T10:41:42Z</time>
      </trkpt>
      <trkpt lat="45.40433" lon="5.88714">
        <ele>845.26</ele>
        <time>2017-09-23T10:41:47Z</time>
      </trkpt>
      <trkpt lat="45.40425" lon="5.88721">
        <ele>841.84</ele>
        <time>2017-09-23T10:41:53Z</time>
      </trkpt>
      <trkpt lat="45.4042" lon="5.88734">
        <ele>836.31</ele>
        <time>2017-09-23T10:42:00Z</time>
      </trkpt>
      <trkpt lat="45.40416" lon="5.88747">
        <ele>837.87</ele>
        <time>2017-09-23T10:42:07Z</time>
      </trkpt>
      <trkpt lat="45.4041" lon="5.88757">
        <ele>837.78</ele>
        <time>2017-09-23T10:42:15Z</time>
      </trkpt>
      <trkpt lat="45.40403" lon="5.88767">
        <ele>836.96</ele>
        <time>2017-09-23T10:42:23Z</time>
      </trkpt>
      <trkpt lat="45.40396" lon="5.88776">
        <ele>837.36</ele>
        <time>2017-09-23T10:42:31Z</time>
      </trkpt>
      <trkpt lat="45.40387" lon="5.88784">
        <ele>838.35</ele>
        <time>2017-09-23T10:42:39Z</time>
      </trkpt>
      <trkpt lat="45.40377" lon="5.88786">
        <ele>840.94</ele>
        <time>2017-09-23T10:42:49Z</time>
      </trkpt>
      <trkpt lat="45.40372" lon="5.88798">
        <ele>839.8</ele>
        <time>2017-09-23T10:42:56Z</time>
      </trkpt>
      <trkpt lat="45.40367" lon="5.8881">
        <ele>839.18</ele>
        <time>2017-09-23T10:43:03Z</time>
      </trkpt>
      <trkpt lat="45.40362" lon="5.88822">
        <ele>841.58</ele>
        <time>2017-09-23T10:43:11Z</time>
      </trkpt>
      <trkpt lat="45.40358" lon="5.88835">
        <ele>839.98</ele>
        <time>2017-09-23T10:43:17Z</time>
      </trkpt>
      <trkpt lat="45.40352" lon="5.88845">
        <ele>840.25</ele>
        <time>2017-09-23T10:43:23Z</time>
      </trkpt>
      <trkpt lat="45.40346" lon="5.88856">
        <ele>841.63</ele>
        <time>2017-09-23T10:43:30Z</time>
      </trkpt>
      <trkpt lat="45.40339" lon="5.88865">
        <ele>844.14</ele>
        <time>2017-09-23T10:43:36Z</time>
      </trkpt>
      <trkpt lat="45.40332" lon="5.88873">
        <ele>842.1</ele>
        <time>2017-09-23T10:43:43Z</time>
      </trkpt>
      <trkpt lat="45.40324" lon="5.88882">
        <ele>841.87</ele>
        <time>2017-09-23T10:43:50Z</time>
      </trkpt>
      <trkpt lat="45.40317" lon="5.88892">
        <ele>840.59</ele>
        <time>2017-09-23T10:43:57Z</time>
      </trkpt>
      <trkpt lat="45.4031" lon="5.88902">
        <ele>843.54</ele>
        <time>2017-09-23T10:44:05Z</time>
      </trkpt>
      <trkpt lat="45.40303" lon="5.88912">
        <ele>846.96</ele>
        <time>2017-09-23T10:44:14Z</time>
      </trkpt>
      <trkpt lat="45.40295" lon="5.88919">
        <ele>848.23</ele>
        <time>2017-09-23T10:44:21Z</time>
      </trkpt>
      <trkpt lat="45.40286" lon="5.88921">
        <ele>851.54</ele>
        <time>2017-09-23T10:44:27Z</time>
      </trkpt>
      <trkpt lat="45.40277" lon="5.88926">
        <ele>853.55</ele>
        <time>2017-09-23T10:44:34Z</time>
      </trkpt>
      <trkpt lat="45.40269" lon="5.88933">
        <ele>853.66</ele>
        <time>2017-09-23T10:44:41Z</time>
      </trkpt>
      <trkpt lat="45.40261" lon="5.88942">
        <ele>846.29</ele>
        <time>2017-09-23T10:44:49Z</time>
      </trkpt>
      <trkpt lat="45.40252" lon="5.88951">
        <ele>843.89</ele>
        <time>2017-09-23T10:44:56Z</time>
      </trkpt>
      <trkpt lat="45.40243" lon="5.88955">
        <ele>846.36</ele>
        <time>2017-09-23T10:45:03Z</time>
      </trkpt>
      <trkpt lat="45.40233" lon="5.88959">
        <ele>846.17</ele>
        <time>2017-09-23T10:45:10Z</time>
      </trkpt>
      <trkpt lat="45.40225" lon="5.88966">
        <ele>844.69</ele>
        <time>2017-09-23T10:45:18Z</time>
      </trkpt>
      <trkpt lat="45.40217" lon="5.88972">
        <ele>850.84</ele>
        <time>2017-09-23T10:45:25Z</time>
      </trkpt>
      <trkpt lat="45.40208" lon="5.88978">
        <ele>851.85</ele>
        <time>2017-09-23T10:45:32Z</time>
      </trkpt>
      <trkpt lat="45.40201" lon="5.88988">
        <ele>853.06</ele>
        <time>2017-09-23T10:45:40Z</time>
      </trkpt>
      <trkpt lat="45.40193" lon="5.88994">
        <ele>855.78</ele>
        <time>2017-09-23T10:45:46Z</time>
      </trkpt>
      <trkpt lat="45.40184" lon="5.89002">
        <ele>857.98</ele>
        <time>2017-09-23T10:45:52Z</time>
      </trkpt>
      <trkpt lat="45.40178" lon="5.89014">
        <ele>855.24</ele>
        <time>2017-09-23T10:45:59Z</time>
      </trkpt>
      <trkpt lat="45.40172" lon="5.89026">
        <ele>855.39</ele>
        <time>2017-09-23T10:46:05Z</time>
      </trkpt>
      <trkpt lat="45.40165" lon="5.89034">
        <ele>858.76</ele>
        <time>2017-09-23T10:46:12Z</time>
      </trkpt>
      <trkpt lat="45.40155" lon="5.89039">
        <ele>860.49</ele>
        <time>2017-09-23T10:46:19Z</time>
      </trkpt>
      <trkpt lat="45.40146" lon="5.89043">
        <ele>857.91</ele>
        <time>2017-09-23T10:46:25Z</time>
      </trkpt>
      <trkpt lat="45.40137" lon="5.8905">
        <ele>856.55</ele>
        <time>2017-09-23T10:46:33Z</time>
      </trkpt>
      <trkpt lat="45.40128" lon="5.89053">
        <ele>857.57</ele>
        <time>2017-09-23T10:46:38Z</time>
      </trkpt>
      <trkpt lat="45.40121" lon="5.89064">
        <ele>853.61</ele>
        <time>2017-09-23T10:46:46Z</time>
      </trkpt>
      <trkpt lat="45.40115" lon="5.89073">
        <ele>853.69</ele>
        <time>2017-09-23T10:46:52Z</time>
      </trkpt>
      <trkpt lat="45.40112" lon="5.89086">
        <ele>854.04</ele>
        <time>2017-09-23T10:47:00Z</time>
      </trkpt>
      <trkpt lat="45.40114" lon="5.89099">
        <ele>848.21</ele>
        <time>2017-09-23T10:47:54Z</time>
      </trkpt>
    </trkseg>
  </trk>
</gpx>